<?xml version="1.0" encoding="UTF-8" standalone="no" ?>
<gpx xmlns="http://www.topografix.com/GPX/1/1" xmlns:xsi="http://www.w3.org/2001/XMLSchema-instance" xsi:schemaLocation="http://www.topografix.com/GPX/1/1 http://www.topografix.com/GPX/1/1/gpx.xsd" version="1.1" creator="VisuGPX - https://www.visugpx.com">
  <metadata>
    <name>64 - VTT - Lagor randonnée sportive \&quot;La Lagorienne\&quot;</name>
    <desc><![CDATA[Soleil, chaleur et belle sortie]]></desc>
  </metadata>
  <trk>
    <name><![CDATA[ACTIVE LOG 001]]></name>
    <trkseg>
      <trkpt lat="43.39626" lon="-0.63569">
        <ele>14.557007</ele>
        <time>2012-06-24T06:49:59Z</time>
      </trkpt>
      <trkpt lat="43.39626" lon="-0.63568">
        <ele>14.557007</ele>
        <time>2012-06-24T06:50:00Z</time>
      </trkpt>
      <trkpt lat="43.39626" lon="-0.63568">
        <ele>16.479736</ele>
        <time>2012-06-24T06:50:02Z</time>
      </trkpt>
      <trkpt lat="43.39626" lon="-0.63567">
        <ele>21.766968</ele>
        <time>2012-06-24T06:50:04Z</time>
      </trkpt>
      <trkpt lat="43.39626" lon="-0.63567">
        <ele>27.054321</ele>
        <time>2012-06-24T06:50:06Z</time>
      </trkpt>
      <trkpt lat="43.39626" lon="-0.63566">
        <ele>32.341553</ele>
        <time>2012-06-24T06:50:08Z</time>
      </trkpt>
      <trkpt lat="43.39626" lon="-0.63566">
        <ele>36.66748</ele>
        <time>2012-06-24T06:50:10Z</time>
      </trkpt>
      <trkpt lat="43.39626" lon="-0.63566">
        <ele>40.512817</ele>
        <time>2012-06-24T06:50:12Z</time>
      </trkpt>
      <trkpt lat="43.39626" lon="-0.63566">
        <ele>43.877319</ele>
        <time>2012-06-24T06:50:14Z</time>
      </trkpt>
      <trkpt lat="43.39626" lon="-0.63565">
        <ele>47.241821</ele>
        <time>2012-06-24T06:50:16Z</time>
      </trkpt>
      <trkpt lat="43.39626" lon="-0.63565">
        <ele>51.567871</ele>
        <time>2012-06-24T06:50:18Z</time>
      </trkpt>
      <trkpt lat="43.39626" lon="-0.63566">
        <ele>52.529175</ele>
        <time>2012-06-24T06:50:20Z</time>
      </trkpt>
      <trkpt lat="43.39627" lon="-0.63566">
        <ele>56.855103</ele>
        <time>2012-06-24T06:50:22Z</time>
      </trkpt>
      <trkpt lat="43.39627" lon="-0.63566">
        <ele>60.700317</ele>
        <time>2012-06-24T06:50:25Z</time>
      </trkpt>
      <trkpt lat="43.39627" lon="-0.63567">
        <ele>60.700317</ele>
        <time>2012-06-24T06:50:26Z</time>
      </trkpt>
      <trkpt lat="43.39627" lon="-0.63567">
        <ele>64.545654</ele>
        <time>2012-06-24T06:50:29Z</time>
      </trkpt>
      <trkpt lat="43.39627" lon="-0.63567">
        <ele>67.429688</ele>
        <time>2012-06-24T06:50:32Z</time>
      </trkpt>
      <trkpt lat="43.39625" lon="-0.63567">
        <ele>70.313477</ele>
        <time>2012-06-24T06:50:36Z</time>
      </trkpt>
      <trkpt lat="43.39625" lon="-0.63566">
        <ele>72.236206</ele>
        <time>2012-06-24T06:50:37Z</time>
      </trkpt>
      <trkpt lat="43.39623" lon="-0.63561">
        <ele>73.678223</ele>
        <time>2012-06-24T06:50:40Z</time>
      </trkpt>
      <trkpt lat="43.39622" lon="-0.63552">
        <ele>77.042847</ele>
        <time>2012-06-24T06:50:44Z</time>
      </trkpt>
      <trkpt lat="43.39622" lon="-0.63545">
        <ele>78.004028</ele>
        <time>2012-06-24T06:50:47Z</time>
      </trkpt>
      <trkpt lat="43.3962" lon="-0.63531">
        <ele>81.368774</ele>
        <time>2012-06-24T06:50:52Z</time>
      </trkpt>
      <trkpt lat="43.3962" lon="-0.63522">
        <ele>82.330078</ele>
        <time>2012-06-24T06:50:54Z</time>
      </trkpt>
      <trkpt lat="43.39618" lon="-0.63509">
        <ele>83.291382</ele>
        <time>2012-06-24T06:50:57Z</time>
      </trkpt>
      <trkpt lat="43.39616" lon="-0.63478">
        <ele>87.136597</ele>
        <time>2012-06-24T06:51:03Z</time>
      </trkpt>
      <trkpt lat="43.39616" lon="-0.63472">
        <ele>87.136597</ele>
        <time>2012-06-24T06:51:04Z</time>
      </trkpt>
      <trkpt lat="43.39615" lon="-0.63446">
        <ele>89.059326</ele>
        <time>2012-06-24T06:51:09Z</time>
      </trkpt>
      <trkpt lat="43.39612" lon="-0.6341">
        <ele>92.42395</ele>
        <time>2012-06-24T06:51:16Z</time>
      </trkpt>
      <trkpt lat="43.3961" lon="-0.63406">
        <ele>92.42395</ele>
        <time>2012-06-24T06:51:17Z</time>
      </trkpt>
      <trkpt lat="43.39599" lon="-0.6339">
        <ele>93.385132</ele>
        <time>2012-06-24T06:51:22Z</time>
      </trkpt>
      <trkpt lat="43.39618" lon="-0.63318">
        <ele>95.307739</ele>
        <time>2012-06-24T06:51:34Z</time>
      </trkpt>
      <trkpt lat="43.39626" lon="-0.63176">
        <ele>94.827148</ele>
        <time>2012-06-24T06:51:53Z</time>
      </trkpt>
      <trkpt lat="43.39646" lon="-0.63024">
        <ele>93.385132</ele>
        <time>2012-06-24T06:52:13Z</time>
      </trkpt>
      <trkpt lat="43.39677" lon="-0.62903">
        <ele>94.346558</ele>
        <time>2012-06-24T06:52:31Z</time>
      </trkpt>
      <trkpt lat="43.39744" lon="-0.62821">
        <ele>93.865845</ele>
        <time>2012-06-24T06:52:49Z</time>
      </trkpt>
      <trkpt lat="43.39743" lon="-0.62791">
        <ele>93.865845</ele>
        <time>2012-06-24T06:52:54Z</time>
      </trkpt>
      <trkpt lat="43.39704" lon="-0.62703">
        <ele>93.385132</ele>
        <time>2012-06-24T06:53:09Z</time>
      </trkpt>
      <trkpt lat="43.39685" lon="-0.62696">
        <ele>93.385132</ele>
        <time>2012-06-24T06:53:15Z</time>
      </trkpt>
      <trkpt lat="43.39669" lon="-0.62708">
        <ele>93.385132</ele>
        <time>2012-06-24T06:53:20Z</time>
      </trkpt>
      <trkpt lat="43.3965" lon="-0.6267">
        <ele>94.346558</ele>
        <time>2012-06-24T06:53:30Z</time>
      </trkpt>
      <trkpt lat="43.39621" lon="-0.62622">
        <ele>94.346558</ele>
        <time>2012-06-24T06:53:44Z</time>
      </trkpt>
      <trkpt lat="43.39606" lon="-0.62584">
        <ele>94.827148</ele>
        <time>2012-06-24T06:53:54Z</time>
      </trkpt>
      <trkpt lat="43.39582" lon="-0.62537">
        <ele>93.865845</ele>
        <time>2012-06-24T06:54:06Z</time>
      </trkpt>
      <trkpt lat="43.39542" lon="-0.62534">
        <ele>94.346558</ele>
        <time>2012-06-24T06:54:17Z</time>
      </trkpt>
      <trkpt lat="43.39486" lon="-0.62557">
        <ele>93.865845</ele>
        <time>2012-06-24T06:54:29Z</time>
      </trkpt>
      <trkpt lat="43.39477" lon="-0.62563">
        <ele>93.865845</ele>
        <time>2012-06-24T06:54:31Z</time>
      </trkpt>
      <trkpt lat="43.39464" lon="-0.62576">
        <ele>93.385132</ele>
        <time>2012-06-24T06:54:34Z</time>
      </trkpt>
      <trkpt lat="43.3944" lon="-0.62575">
        <ele>93.865845</ele>
        <time>2012-06-24T06:54:40Z</time>
      </trkpt>
      <trkpt lat="43.39426" lon="-0.62559">
        <ele>93.385132</ele>
        <time>2012-06-24T06:54:45Z</time>
      </trkpt>
      <trkpt lat="43.39424" lon="-0.6256">
        <ele>93.385132</ele>
        <time>2012-06-24T06:54:48Z</time>
      </trkpt>
      <trkpt lat="43.39428" lon="-0.62569">
        <ele>93.385132</ele>
        <time>2012-06-24T06:54:55Z</time>
      </trkpt>
      <trkpt lat="43.39417" lon="-0.62583">
        <ele>94.827148</ele>
        <time>2012-06-24T06:55:03Z</time>
      </trkpt>
      <trkpt lat="43.39396" lon="-0.62599">
        <ele>94.346558</ele>
        <time>2012-06-24T06:55:12Z</time>
      </trkpt>
      <trkpt lat="43.39401" lon="-0.62654">
        <ele>94.346558</ele>
        <time>2012-06-24T06:55:24Z</time>
      </trkpt>
      <trkpt lat="43.39403" lon="-0.62683">
        <ele>93.865845</ele>
        <time>2012-06-24T06:55:31Z</time>
      </trkpt>
      <trkpt lat="43.39428" lon="-0.62703">
        <ele>94.827148</ele>
        <time>2012-06-24T06:55:42Z</time>
      </trkpt>
      <trkpt lat="43.39442" lon="-0.62756">
        <ele>94.827148</ele>
        <time>2012-06-24T06:55:55Z</time>
      </trkpt>
      <trkpt lat="43.39433" lon="-0.62766">
        <ele>95.307739</ele>
        <time>2012-06-24T06:55:59Z</time>
      </trkpt>
      <trkpt lat="43.39387" lon="-0.62793">
        <ele>94.827148</ele>
        <time>2012-06-24T06:56:12Z</time>
      </trkpt>
      <trkpt lat="43.39345" lon="-0.62834">
        <ele>94.827148</ele>
        <time>2012-06-24T06:56:27Z</time>
      </trkpt>
      <trkpt lat="43.3934" lon="-0.62883">
        <ele>96.749878</ele>
        <time>2012-06-24T06:56:39Z</time>
      </trkpt>
      <trkpt lat="43.39343" lon="-0.6289">
        <ele>97.230469</ele>
        <time>2012-06-24T06:56:41Z</time>
      </trkpt>
      <trkpt lat="43.39385" lon="-0.62953">
        <ele>97.230469</ele>
        <time>2012-06-24T06:56:58Z</time>
      </trkpt>
      <trkpt lat="43.39416" lon="-0.63002">
        <ele>97.230469</ele>
        <time>2012-06-24T06:57:11Z</time>
      </trkpt>
      <trkpt lat="43.39409" lon="-0.63011">
        <ele>98.672485</ele>
        <time>2012-06-24T06:57:15Z</time>
      </trkpt>
      <trkpt lat="43.39402" lon="-0.63011">
        <ele>99.153076</ele>
        <time>2012-06-24T06:57:17Z</time>
      </trkpt>
      <trkpt lat="43.39361" lon="-0.6301">
        <ele>99.633789</ele>
        <time>2012-06-24T06:57:30Z</time>
      </trkpt>
      <trkpt lat="43.39345" lon="-0.63025">
        <ele>98.672485</ele>
        <time>2012-06-24T06:57:36Z</time>
      </trkpt>
      <trkpt lat="43.39295" lon="-0.62994">
        <ele>99.633789</ele>
        <time>2012-06-24T06:57:50Z</time>
      </trkpt>
      <trkpt lat="43.39209" lon="-0.62925">
        <ele>99.633789</ele>
        <time>2012-06-24T06:58:11Z</time>
      </trkpt>
      <trkpt lat="43.39143" lon="-0.62837">
        <ele>99.633789</ele>
        <time>2012-06-24T06:58:30Z</time>
      </trkpt>
      <trkpt lat="43.39125" lon="-0.62829">
        <ele>99.633789</ele>
        <time>2012-06-24T06:58:34Z</time>
      </trkpt>
      <trkpt lat="43.39103" lon="-0.62819">
        <ele>99.633789</ele>
        <time>2012-06-24T06:58:39Z</time>
      </trkpt>
      <trkpt lat="43.39079" lon="-0.62792">
        <ele>100.114502</ele>
        <time>2012-06-24T06:58:45Z</time>
      </trkpt>
      <trkpt lat="43.39065" lon="-0.62774">
        <ele>100.114502</ele>
        <time>2012-06-24T06:58:49Z</time>
      </trkpt>
      <trkpt lat="43.39032" lon="-0.62713">
        <ele>100.595093</ele>
        <time>2012-06-24T06:59:02Z</time>
      </trkpt>
      <trkpt lat="43.3901" lon="-0.62686">
        <ele>100.114502</ele>
        <time>2012-06-24T06:59:09Z</time>
      </trkpt>
      <trkpt lat="43.39013" lon="-0.62671">
        <ele>100.114502</ele>
        <time>2012-06-24T06:59:14Z</time>
      </trkpt>
      <trkpt lat="43.39062" lon="-0.62615">
        <ele>98.191895</ele>
        <time>2012-06-24T06:59:31Z</time>
      </trkpt>
      <trkpt lat="43.39063" lon="-0.62611">
        <ele>98.191895</ele>
        <time>2012-06-24T06:59:32Z</time>
      </trkpt>
      <trkpt lat="43.39042" lon="-0.6257">
        <ele>98.191895</ele>
        <time>2012-06-24T06:59:42Z</time>
      </trkpt>
      <trkpt lat="43.39015" lon="-0.62523">
        <ele>98.672485</ele>
        <time>2012-06-24T06:59:53Z</time>
      </trkpt>
      <trkpt lat="43.39008" lon="-0.62506">
        <ele>98.672485</ele>
        <time>2012-06-24T06:59:57Z</time>
      </trkpt>
      <trkpt lat="43.39018" lon="-0.62479">
        <ele>98.191895</ele>
        <time>2012-06-24T07:00:04Z</time>
      </trkpt>
      <trkpt lat="43.39005" lon="-0.62441">
        <ele>97.711182</ele>
        <time>2012-06-24T07:00:13Z</time>
      </trkpt>
      <trkpt lat="43.39002" lon="-0.62436">
        <ele>97.711182</ele>
        <time>2012-06-24T07:00:14Z</time>
      </trkpt>
      <trkpt lat="43.3899" lon="-0.62402">
        <ele>97.711182</ele>
        <time>2012-06-24T07:00:21Z</time>
      </trkpt>
      <trkpt lat="43.38965" lon="-0.62337">
        <ele>98.191895</ele>
        <time>2012-06-24T07:00:35Z</time>
      </trkpt>
      <trkpt lat="43.38962" lon="-0.62324">
        <ele>98.191895</ele>
        <time>2012-06-24T07:00:37Z</time>
      </trkpt>
      <trkpt lat="43.38961" lon="-0.62263">
        <ele>99.153076</ele>
        <time>2012-06-24T07:00:47Z</time>
      </trkpt>
      <trkpt lat="43.38951" lon="-0.62232">
        <ele>99.633789</ele>
        <time>2012-06-24T07:00:53Z</time>
      </trkpt>
      <trkpt lat="43.38939" lon="-0.62177">
        <ele>99.153076</ele>
        <time>2012-06-24T07:01:02Z</time>
      </trkpt>
      <trkpt lat="43.38915" lon="-0.6207">
        <ele>99.153076</ele>
        <time>2012-06-24T07:01:19Z</time>
      </trkpt>
      <trkpt lat="43.38914" lon="-0.62057">
        <ele>99.633789</ele>
        <time>2012-06-24T07:01:21Z</time>
      </trkpt>
      <trkpt lat="43.38924" lon="-0.6198">
        <ele>99.633789</ele>
        <time>2012-06-24T07:01:33Z</time>
      </trkpt>
      <trkpt lat="43.38923" lon="-0.61954">
        <ele>99.153076</ele>
        <time>2012-06-24T07:01:37Z</time>
      </trkpt>
      <trkpt lat="43.38881" lon="-0.61839">
        <ele>99.633789</ele>
        <time>2012-06-24T07:01:56Z</time>
      </trkpt>
      <trkpt lat="43.38855" lon="-0.61772">
        <ele>100.114502</ele>
        <time>2012-06-24T07:02:07Z</time>
      </trkpt>
      <trkpt lat="43.38854" lon="-0.61725">
        <ele>100.595093</ele>
        <time>2012-06-24T07:02:14Z</time>
      </trkpt>
      <trkpt lat="43.3884" lon="-0.6172">
        <ele>100.595093</ele>
        <time>2012-06-24T07:02:20Z</time>
      </trkpt>
      <trkpt lat="43.38837" lon="-0.61726">
        <ele>101.075684</ele>
        <time>2012-06-24T07:02:21Z</time>
      </trkpt>
      <trkpt lat="43.38773" lon="-0.61841">
        <ele>101.556396</ele>
        <time>2012-06-24T07:02:42Z</time>
      </trkpt>
      <trkpt lat="43.38742" lon="-0.619">
        <ele>102.5177</ele>
        <time>2012-06-24T07:02:53Z</time>
      </trkpt>
      <trkpt lat="43.38724" lon="-0.61999">
        <ele>103.479004</ele>
        <time>2012-06-24T07:03:09Z</time>
      </trkpt>
      <trkpt lat="43.3872" lon="-0.62031">
        <ele>102.998291</ele>
        <time>2012-06-24T07:03:14Z</time>
      </trkpt>
      <trkpt lat="43.38721" lon="-0.62057">
        <ele>103.479004</ele>
        <time>2012-06-24T07:03:18Z</time>
      </trkpt>
      <trkpt lat="43.3872" lon="-0.6214">
        <ele>102.5177</ele>
        <time>2012-06-24T07:03:30Z</time>
      </trkpt>
      <trkpt lat="43.38723" lon="-0.62167">
        <ele>102.037109</ele>
        <time>2012-06-24T07:03:34Z</time>
      </trkpt>
      <trkpt lat="43.3874" lon="-0.62285">
        <ele>101.075684</ele>
        <time>2012-06-24T07:03:50Z</time>
      </trkpt>
      <trkpt lat="43.38747" lon="-0.62326">
        <ele>101.075684</ele>
        <time>2012-06-24T07:03:56Z</time>
      </trkpt>
      <trkpt lat="43.38782" lon="-0.62434">
        <ele>100.595093</ele>
        <time>2012-06-24T07:04:14Z</time>
      </trkpt>
      <trkpt lat="43.38793" lon="-0.62486">
        <ele>100.595093</ele>
        <time>2012-06-24T07:04:22Z</time>
      </trkpt>
      <trkpt lat="43.388" lon="-0.62504">
        <ele>100.595093</ele>
        <time>2012-06-24T07:04:25Z</time>
      </trkpt>
      <trkpt lat="43.38832" lon="-0.62563">
        <ele>100.595093</ele>
        <time>2012-06-24T07:04:36Z</time>
      </trkpt>
      <trkpt lat="43.38844" lon="-0.62583">
        <ele>101.075684</ele>
        <time>2012-06-24T07:04:40Z</time>
      </trkpt>
      <trkpt lat="43.38858" lon="-0.62612">
        <ele>100.114502</ele>
        <time>2012-06-24T07:04:46Z</time>
      </trkpt>
      <trkpt lat="43.3885" lon="-0.62633">
        <ele>100.114502</ele>
        <time>2012-06-24T07:04:50Z</time>
      </trkpt>
      <trkpt lat="43.3884" lon="-0.62668">
        <ele>100.595093</ele>
        <time>2012-06-24T07:04:56Z</time>
      </trkpt>
      <trkpt lat="43.38839" lon="-0.62687">
        <ele>101.075684</ele>
        <time>2012-06-24T07:04:59Z</time>
      </trkpt>
      <trkpt lat="43.3885" lon="-0.62715">
        <ele>101.556396</ele>
        <time>2012-06-24T07:05:04Z</time>
      </trkpt>
      <trkpt lat="43.38864" lon="-0.62767">
        <ele>100.595093</ele>
        <time>2012-06-24T07:05:13Z</time>
      </trkpt>
      <trkpt lat="43.3885" lon="-0.6281">
        <ele>100.114502</ele>
        <time>2012-06-24T07:05:20Z</time>
      </trkpt>
      <trkpt lat="43.38852" lon="-0.62841">
        <ele>100.595093</ele>
        <time>2012-06-24T07:05:25Z</time>
      </trkpt>
      <trkpt lat="43.3888" lon="-0.62888">
        <ele>100.114502</ele>
        <time>2012-06-24T07:05:34Z</time>
      </trkpt>
      <trkpt lat="43.38874" lon="-0.62929">
        <ele>100.595093</ele>
        <time>2012-06-24T07:05:41Z</time>
      </trkpt>
      <trkpt lat="43.38862" lon="-0.6295">
        <ele>100.114502</ele>
        <time>2012-06-24T07:05:45Z</time>
      </trkpt>
      <trkpt lat="43.38855" lon="-0.62976">
        <ele>100.595093</ele>
        <time>2012-06-24T07:05:49Z</time>
      </trkpt>
      <trkpt lat="43.38853" lon="-0.62997">
        <ele>100.114502</ele>
        <time>2012-06-24T07:05:52Z</time>
      </trkpt>
      <trkpt lat="43.38861" lon="-0.63076">
        <ele>100.595093</ele>
        <time>2012-06-24T07:06:04Z</time>
      </trkpt>
      <trkpt lat="43.38884" lon="-0.63133">
        <ele>101.075684</ele>
        <time>2012-06-24T07:06:14Z</time>
      </trkpt>
      <trkpt lat="43.38874" lon="-0.63148">
        <ele>100.595093</ele>
        <time>2012-06-24T07:06:19Z</time>
      </trkpt>
      <trkpt lat="43.38863" lon="-0.63149">
        <ele>100.595093</ele>
        <time>2012-06-24T07:06:22Z</time>
      </trkpt>
      <trkpt lat="43.38798" lon="-0.63189">
        <ele>101.075684</ele>
        <time>2012-06-24T07:06:39Z</time>
      </trkpt>
      <trkpt lat="43.38743" lon="-0.63232">
        <ele>101.556396</ele>
        <time>2012-06-24T07:06:54Z</time>
      </trkpt>
      <trkpt lat="43.38712" lon="-0.63259">
        <ele>101.075684</ele>
        <time>2012-06-24T07:07:04Z</time>
      </trkpt>
      <trkpt lat="43.38684" lon="-0.63307">
        <ele>102.037109</ele>
        <time>2012-06-24T07:07:15Z</time>
      </trkpt>
      <trkpt lat="43.38674" lon="-0.63321">
        <ele>101.075684</ele>
        <time>2012-06-24T07:07:18Z</time>
      </trkpt>
      <trkpt lat="43.38652" lon="-0.63343">
        <ele>101.556396</ele>
        <time>2012-06-24T07:07:27Z</time>
      </trkpt>
      <trkpt lat="43.38645" lon="-0.63352">
        <ele>100.595093</ele>
        <time>2012-06-24T07:07:30Z</time>
      </trkpt>
      <trkpt lat="43.38605" lon="-0.63377">
        <ele>101.556396</ele>
        <time>2012-06-24T07:07:43Z</time>
      </trkpt>
      <trkpt lat="43.38552" lon="-0.63401">
        <ele>101.556396</ele>
        <time>2012-06-24T07:07:58Z</time>
      </trkpt>
      <trkpt lat="43.38527" lon="-0.63423">
        <ele>102.037109</ele>
        <time>2012-06-24T07:08:08Z</time>
      </trkpt>
      <trkpt lat="43.38488" lon="-0.63422">
        <ele>101.556396</ele>
        <time>2012-06-24T07:08:20Z</time>
      </trkpt>
      <trkpt lat="43.38435" lon="-0.63431">
        <ele>101.556396</ele>
        <time>2012-06-24T07:08:34Z</time>
      </trkpt>
      <trkpt lat="43.38377" lon="-0.63427">
        <ele>101.075684</ele>
        <time>2012-06-24T07:08:50Z</time>
      </trkpt>
      <trkpt lat="43.38354" lon="-0.63448">
        <ele>101.556396</ele>
        <time>2012-06-24T07:09:00Z</time>
      </trkpt>
      <trkpt lat="43.38342" lon="-0.63461">
        <ele>101.075684</ele>
        <time>2012-06-24T07:09:08Z</time>
      </trkpt>
      <trkpt lat="43.38341" lon="-0.63463">
        <ele>101.556396</ele>
        <time>2012-06-24T07:09:11Z</time>
      </trkpt>
      <trkpt lat="43.38352" lon="-0.63454">
        <ele>101.556396</ele>
        <time>2012-06-24T07:09:16Z</time>
      </trkpt>
      <trkpt lat="43.38377" lon="-0.63427">
        <ele>101.075684</ele>
        <time>2012-06-24T07:09:27Z</time>
      </trkpt>
      <trkpt lat="43.38373" lon="-0.6343">
        <ele>100.595093</ele>
        <time>2012-06-24T07:09:31Z</time>
      </trkpt>
      <trkpt lat="43.38334" lon="-0.63473">
        <ele>102.037109</ele>
        <time>2012-06-24T07:09:44Z</time>
      </trkpt>
      <trkpt lat="43.38302" lon="-0.63526">
        <ele>101.556396</ele>
        <time>2012-06-24T07:09:55Z</time>
      </trkpt>
      <trkpt lat="43.38299" lon="-0.63552">
        <ele>102.037109</ele>
        <time>2012-06-24T07:09:59Z</time>
      </trkpt>
      <trkpt lat="43.38288" lon="-0.63581">
        <ele>101.075684</ele>
        <time>2012-06-24T07:10:04Z</time>
      </trkpt>
      <trkpt lat="43.38236" lon="-0.63615">
        <ele>102.5177</ele>
        <time>2012-06-24T07:10:17Z</time>
      </trkpt>
      <trkpt lat="43.38232" lon="-0.63617">
        <ele>102.998291</ele>
        <time>2012-06-24T07:10:18Z</time>
      </trkpt>
      <trkpt lat="43.38221" lon="-0.63618">
        <ele>102.998291</ele>
        <time>2012-06-24T07:10:21Z</time>
      </trkpt>
      <trkpt lat="43.38186" lon="-0.63626">
        <ele>105.401733</ele>
        <time>2012-06-24T07:10:30Z</time>
      </trkpt>
      <trkpt lat="43.38171" lon="-0.63658">
        <ele>107.324341</ele>
        <time>2012-06-24T07:10:41Z</time>
      </trkpt>
      <trkpt lat="43.38199" lon="-0.63685">
        <ele>109.727661</ele>
        <time>2012-06-24T07:10:54Z</time>
      </trkpt>
      <trkpt lat="43.38206" lon="-0.63692">
        <ele>111.169556</ele>
        <time>2012-06-24T07:10:58Z</time>
      </trkpt>
      <trkpt lat="43.38219" lon="-0.63714">
        <ele>114.053589</ele>
        <time>2012-06-24T07:11:08Z</time>
      </trkpt>
      <trkpt lat="43.38241" lon="-0.6376">
        <ele>115.976196</ele>
        <time>2012-06-24T07:11:24Z</time>
      </trkpt>
      <trkpt lat="43.3825" lon="-0.63833">
        <ele>116.9375</ele>
        <time>2012-06-24T07:11:40Z</time>
      </trkpt>
      <trkpt lat="43.38261" lon="-0.63888">
        <ele>118.860107</ele>
        <time>2012-06-24T07:11:53Z</time>
      </trkpt>
      <trkpt lat="43.38295" lon="-0.6395">
        <ele>121.26355</ele>
        <time>2012-06-24T07:12:11Z</time>
      </trkpt>
      <trkpt lat="43.38326" lon="-0.64017">
        <ele>123.666748</ele>
        <time>2012-06-24T07:12:29Z</time>
      </trkpt>
      <trkpt lat="43.38356" lon="-0.64077">
        <ele>124.628052</ele>
        <time>2012-06-24T07:12:44Z</time>
      </trkpt>
      <trkpt lat="43.38369" lon="-0.64128">
        <ele>124.147339</ele>
        <time>2012-06-24T07:12:54Z</time>
      </trkpt>
      <trkpt lat="43.38377" lon="-0.64207">
        <ele>126.550659</ele>
        <time>2012-06-24T07:13:09Z</time>
      </trkpt>
      <trkpt lat="43.38378" lon="-0.64262">
        <ele>128.473389</ele>
        <time>2012-06-24T07:13:20Z</time>
      </trkpt>
      <trkpt lat="43.38399" lon="-0.64296">
        <ele>129.434692</ele>
        <time>2012-06-24T07:13:32Z</time>
      </trkpt>
      <trkpt lat="43.384" lon="-0.64294">
        <ele>129.915283</ele>
        <time>2012-06-24T07:13:46Z</time>
      </trkpt>
      <trkpt lat="43.38407" lon="-0.64302">
        <ele>130.876709</ele>
        <time>2012-06-24T07:13:55Z</time>
      </trkpt>
      <trkpt lat="43.38431" lon="-0.64322">
        <ele>134.241211</ele>
        <time>2012-06-24T07:14:08Z</time>
      </trkpt>
      <trkpt lat="43.38454" lon="-0.64337">
        <ele>137.605835</ele>
        <time>2012-06-24T07:14:21Z</time>
      </trkpt>
      <trkpt lat="43.3846" lon="-0.64342">
        <ele>138.567261</ele>
        <time>2012-06-24T07:14:25Z</time>
      </trkpt>
      <trkpt lat="43.3847" lon="-0.64352">
        <ele>139.528442</ele>
        <time>2012-06-24T07:14:31Z</time>
      </trkpt>
      <trkpt lat="43.3849" lon="-0.64378">
        <ele>140.970459</ele>
        <time>2012-06-24T07:14:43Z</time>
      </trkpt>
      <trkpt lat="43.38515" lon="-0.64437">
        <ele>142.893066</ele>
        <time>2012-06-24T07:15:00Z</time>
      </trkpt>
      <trkpt lat="43.38539" lon="-0.64495">
        <ele>144.335205</ele>
        <time>2012-06-24T07:15:15Z</time>
      </trkpt>
      <trkpt lat="43.38555" lon="-0.64532">
        <ele>145.7771</ele>
        <time>2012-06-24T07:15:27Z</time>
      </trkpt>
      <trkpt lat="43.38571" lon="-0.64573">
        <ele>149.141602</ele>
        <time>2012-06-24T07:15:42Z</time>
      </trkpt>
      <trkpt lat="43.38571" lon="-0.64575">
        <ele>149.141602</ele>
        <time>2012-06-24T07:15:43Z</time>
      </trkpt>
      <trkpt lat="43.38581" lon="-0.64613">
        <ele>152.506348</ele>
        <time>2012-06-24T07:15:56Z</time>
      </trkpt>
      <trkpt lat="43.38591" lon="-0.64641">
        <ele>154.909546</ele>
        <time>2012-06-24T07:16:08Z</time>
      </trkpt>
      <trkpt lat="43.38595" lon="-0.64665">
        <ele>157.312866</ele>
        <time>2012-06-24T07:16:19Z</time>
      </trkpt>
      <trkpt lat="43.38628" lon="-0.64699">
        <ele>156.832153</ele>
        <time>2012-06-24T07:16:33Z</time>
      </trkpt>
      <trkpt lat="43.38615" lon="-0.64721">
        <ele>155.870972</ele>
        <time>2012-06-24T07:16:39Z</time>
      </trkpt>
      <trkpt lat="43.38594" lon="-0.64728">
        <ele>153.948364</ele>
        <time>2012-06-24T07:16:42Z</time>
      </trkpt>
      <trkpt lat="43.38561" lon="-0.64753">
        <ele>149.622314</ele>
        <time>2012-06-24T07:16:46Z</time>
      </trkpt>
      <trkpt lat="43.38529" lon="-0.64786">
        <ele>143.85437</ele>
        <time>2012-06-24T07:16:50Z</time>
      </trkpt>
      <trkpt lat="43.38507" lon="-0.64794">
        <ele>141.45105</ele>
        <time>2012-06-24T07:16:54Z</time>
      </trkpt>
      <trkpt lat="43.38486" lon="-0.64793">
        <ele>136.644653</ele>
        <time>2012-06-24T07:16:59Z</time>
      </trkpt>
      <trkpt lat="43.38417" lon="-0.64767">
        <ele>133.279907</ele>
        <time>2012-06-24T07:17:10Z</time>
      </trkpt>
      <trkpt lat="43.38376" lon="-0.64761">
        <ele>130.876709</ele>
        <time>2012-06-24T07:17:15Z</time>
      </trkpt>
      <trkpt lat="43.38358" lon="-0.64758">
        <ele>130.395996</ele>
        <time>2012-06-24T07:17:17Z</time>
      </trkpt>
      <trkpt lat="43.38319" lon="-0.64728">
        <ele>128.954102</ele>
        <time>2012-06-24T07:17:22Z</time>
      </trkpt>
      <trkpt lat="43.38285" lon="-0.64684">
        <ele>126.069946</ele>
        <time>2012-06-24T07:17:27Z</time>
      </trkpt>
      <trkpt lat="43.38264" lon="-0.64657">
        <ele>126.069946</ele>
        <time>2012-06-24T07:17:30Z</time>
      </trkpt>
      <trkpt lat="43.38241" lon="-0.646">
        <ele>123.666748</ele>
        <time>2012-06-24T07:17:35Z</time>
      </trkpt>
      <trkpt lat="43.38213" lon="-0.64519">
        <ele>120.782837</ele>
        <time>2012-06-24T07:17:42Z</time>
      </trkpt>
      <trkpt lat="43.38204" lon="-0.64499">
        <ele>120.782837</ele>
        <time>2012-06-24T07:17:44Z</time>
      </trkpt>
      <trkpt lat="43.38151" lon="-0.64479">
        <ele>117.898804</ele>
        <time>2012-06-24T07:17:51Z</time>
      </trkpt>
      <trkpt lat="43.38128" lon="-0.6451">
        <ele>116.456787</ele>
        <time>2012-06-24T07:17:55Z</time>
      </trkpt>
      <trkpt lat="43.38105" lon="-0.645">
        <ele>114.53418</ele>
        <time>2012-06-24T07:18:02Z</time>
      </trkpt>
      <trkpt lat="43.38069" lon="-0.64453">
        <ele>114.53418</ele>
        <time>2012-06-24T07:18:11Z</time>
      </trkpt>
      <trkpt lat="43.3804" lon="-0.64439">
        <ele>114.53418</ele>
        <time>2012-06-24T07:18:17Z</time>
      </trkpt>
      <trkpt lat="43.3802" lon="-0.64421">
        <ele>114.53418</ele>
        <time>2012-06-24T07:18:22Z</time>
      </trkpt>
      <trkpt lat="43.37978" lon="-0.64385">
        <ele>114.53418</ele>
        <time>2012-06-24T07:18:34Z</time>
      </trkpt>
      <trkpt lat="43.37966" lon="-0.64385">
        <ele>114.053589</ele>
        <time>2012-06-24T07:18:37Z</time>
      </trkpt>
      <trkpt lat="43.37944" lon="-0.64369">
        <ele>114.053589</ele>
        <time>2012-06-24T07:18:43Z</time>
      </trkpt>
      <trkpt lat="43.37895" lon="-0.64298">
        <ele>114.053589</ele>
        <time>2012-06-24T07:19:00Z</time>
      </trkpt>
      <trkpt lat="43.37856" lon="-0.64267">
        <ele>114.053589</ele>
        <time>2012-06-24T07:19:12Z</time>
      </trkpt>
      <trkpt lat="43.37823" lon="-0.64247">
        <ele>114.53418</ele>
        <time>2012-06-24T07:19:23Z</time>
      </trkpt>
      <trkpt lat="43.37798" lon="-0.64188">
        <ele>115.014893</ele>
        <time>2012-06-24T07:19:38Z</time>
      </trkpt>
      <trkpt lat="43.37778" lon="-0.64208">
        <ele>115.495605</ele>
        <time>2012-06-24T07:19:47Z</time>
      </trkpt>
      <trkpt lat="43.37772" lon="-0.64221">
        <ele>115.495605</ele>
        <time>2012-06-24T07:19:51Z</time>
      </trkpt>
      <trkpt lat="43.37773" lon="-0.64235">
        <ele>115.495605</ele>
        <time>2012-06-24T07:19:55Z</time>
      </trkpt>
      <trkpt lat="43.37789" lon="-0.64278">
        <ele>115.976196</ele>
        <time>2012-06-24T07:20:06Z</time>
      </trkpt>
      <trkpt lat="43.37777" lon="-0.64281">
        <ele>115.495605</ele>
        <time>2012-06-24T07:20:13Z</time>
      </trkpt>
      <trkpt lat="43.3773" lon="-0.64244">
        <ele>117.418213</ele>
        <time>2012-06-24T07:20:30Z</time>
      </trkpt>
      <trkpt lat="43.37678" lon="-0.64186">
        <ele>116.9375</ele>
        <time>2012-06-24T07:20:49Z</time>
      </trkpt>
      <trkpt lat="43.37624" lon="-0.64127">
        <ele>117.898804</ele>
        <time>2012-06-24T07:21:11Z</time>
      </trkpt>
      <trkpt lat="43.3762" lon="-0.64121">
        <ele>117.418213</ele>
        <time>2012-06-24T07:21:23Z</time>
      </trkpt>
      <trkpt lat="43.37617" lon="-0.6412">
        <ele>117.418213</ele>
        <time>2012-06-24T07:21:38Z</time>
      </trkpt>
      <trkpt lat="43.37617" lon="-0.64122">
        <ele>117.418213</ele>
        <time>2012-06-24T07:22:04Z</time>
      </trkpt>
      <trkpt lat="43.3762" lon="-0.64121">
        <ele>116.9375</ele>
        <time>2012-06-24T07:22:19Z</time>
      </trkpt>
      <trkpt lat="43.37619" lon="-0.64122">
        <ele>116.9375</ele>
        <time>2012-06-24T07:22:37Z</time>
      </trkpt>
      <trkpt lat="43.3762" lon="-0.64122">
        <ele>117.418213</ele>
        <time>2012-06-24T07:22:53Z</time>
      </trkpt>
      <trkpt lat="43.37619" lon="-0.64122">
        <ele>116.9375</ele>
        <time>2012-06-24T07:22:58Z</time>
      </trkpt>
      <trkpt lat="43.3761" lon="-0.6413">
        <ele>117.418213</ele>
        <time>2012-06-24T07:23:05Z</time>
      </trkpt>
      <trkpt lat="43.37604" lon="-0.6416">
        <ele>117.898804</ele>
        <time>2012-06-24T07:23:14Z</time>
      </trkpt>
      <trkpt lat="43.37595" lon="-0.6416">
        <ele>118.860107</ele>
        <time>2012-06-24T07:23:18Z</time>
      </trkpt>
      <trkpt lat="43.37561" lon="-0.6413">
        <ele>117.898804</ele>
        <time>2012-06-24T07:23:29Z</time>
      </trkpt>
      <trkpt lat="43.37497" lon="-0.64138">
        <ele>118.860107</ele>
        <time>2012-06-24T07:23:45Z</time>
      </trkpt>
      <trkpt lat="43.37493" lon="-0.64138">
        <ele>119.34082</ele>
        <time>2012-06-24T07:23:46Z</time>
      </trkpt>
      <trkpt lat="43.37473" lon="-0.6413">
        <ele>119.821411</ele>
        <time>2012-06-24T07:23:51Z</time>
      </trkpt>
      <trkpt lat="43.37415" lon="-0.64086">
        <ele>120.782837</ele>
        <time>2012-06-24T07:24:07Z</time>
      </trkpt>
      <trkpt lat="43.374" lon="-0.64074">
        <ele>120.782837</ele>
        <time>2012-06-24T07:24:11Z</time>
      </trkpt>
      <trkpt lat="43.37388" lon="-0.64064">
        <ele>120.782837</ele>
        <time>2012-06-24T07:24:14Z</time>
      </trkpt>
      <trkpt lat="43.37363" lon="-0.64044">
        <ele>119.821411</ele>
        <time>2012-06-24T07:24:20Z</time>
      </trkpt>
      <trkpt lat="43.37297" lon="-0.64034">
        <ele>118.860107</ele>
        <time>2012-06-24T07:24:33Z</time>
      </trkpt>
      <trkpt lat="43.37219" lon="-0.64044">
        <ele>120.302124</ele>
        <time>2012-06-24T07:24:51Z</time>
      </trkpt>
      <trkpt lat="43.37169" lon="-0.64041">
        <ele>121.26355</ele>
        <time>2012-06-24T07:25:04Z</time>
      </trkpt>
      <trkpt lat="43.37132" lon="-0.64034">
        <ele>123.186157</ele>
        <time>2012-06-24T07:25:14Z</time>
      </trkpt>
      <trkpt lat="43.37064" lon="-0.64018">
        <ele>121.26355</ele>
        <time>2012-06-24T07:25:29Z</time>
      </trkpt>
      <trkpt lat="43.37039" lon="-0.64007">
        <ele>120.782837</ele>
        <time>2012-06-24T07:25:33Z</time>
      </trkpt>
      <trkpt lat="43.37029" lon="-0.64">
        <ele>120.302124</ele>
        <time>2012-06-24T07:25:35Z</time>
      </trkpt>
      <trkpt lat="43.37009" lon="-0.63993">
        <ele>121.26355</ele>
        <time>2012-06-24T07:25:39Z</time>
      </trkpt>
      <trkpt lat="43.36917" lon="-0.63973">
        <ele>121.744141</ele>
        <time>2012-06-24T07:25:59Z</time>
      </trkpt>
      <trkpt lat="43.36845" lon="-0.63958">
        <ele>123.666748</ele>
        <time>2012-06-24T07:26:15Z</time>
      </trkpt>
      <trkpt lat="43.3684" lon="-0.63957">
        <ele>123.666748</ele>
        <time>2012-06-24T07:26:16Z</time>
      </trkpt>
      <trkpt lat="43.36779" lon="-0.63946">
        <ele>123.186157</ele>
        <time>2012-06-24T07:26:29Z</time>
      </trkpt>
      <trkpt lat="43.36769" lon="-0.63945">
        <ele>123.666748</ele>
        <time>2012-06-24T07:26:31Z</time>
      </trkpt>
      <trkpt lat="43.36754" lon="-0.63941">
        <ele>123.186157</ele>
        <time>2012-06-24T07:26:34Z</time>
      </trkpt>
      <trkpt lat="43.36736" lon="-0.63932">
        <ele>123.666748</ele>
        <time>2012-06-24T07:26:38Z</time>
      </trkpt>
      <trkpt lat="43.36685" lon="-0.63914">
        <ele>125.108765</ele>
        <time>2012-06-24T07:26:50Z</time>
      </trkpt>
      <trkpt lat="43.3667" lon="-0.63922">
        <ele>125.108765</ele>
        <time>2012-06-24T07:26:54Z</time>
      </trkpt>
      <trkpt lat="43.36661" lon="-0.63932">
        <ele>125.589355</ele>
        <time>2012-06-24T07:26:57Z</time>
      </trkpt>
      <trkpt lat="43.36577" lon="-0.63948">
        <ele>128.473389</ele>
        <time>2012-06-24T07:27:17Z</time>
      </trkpt>
      <trkpt lat="43.36545" lon="-0.63943">
        <ele>127.992554</ele>
        <time>2012-06-24T07:27:27Z</time>
      </trkpt>
      <trkpt lat="43.36534" lon="-0.63922">
        <ele>127.031372</ele>
        <time>2012-06-24T07:27:31Z</time>
      </trkpt>
      <trkpt lat="43.36491" lon="-0.63776">
        <ele>124.628052</ele>
        <time>2012-06-24T07:27:48Z</time>
      </trkpt>
      <trkpt lat="43.36475" lon="-0.63715">
        <ele>124.147339</ele>
        <time>2012-06-24T07:27:55Z</time>
      </trkpt>
      <trkpt lat="43.36473" lon="-0.63681">
        <ele>124.147339</ele>
        <time>2012-06-24T07:27:59Z</time>
      </trkpt>
      <trkpt lat="43.36497" lon="-0.63605">
        <ele>127.511963</ele>
        <time>2012-06-24T07:28:12Z</time>
      </trkpt>
      <trkpt lat="43.365" lon="-0.63597">
        <ele>127.992554</ele>
        <time>2012-06-24T07:28:14Z</time>
      </trkpt>
      <trkpt lat="43.36489" lon="-0.63587">
        <ele>128.473389</ele>
        <time>2012-06-24T07:28:19Z</time>
      </trkpt>
      <trkpt lat="43.36432" lon="-0.63611">
        <ele>125.108765</ele>
        <time>2012-06-24T07:28:29Z</time>
      </trkpt>
      <trkpt lat="43.36419" lon="-0.63618">
        <ele>125.108765</ele>
        <time>2012-06-24T07:28:31Z</time>
      </trkpt>
      <trkpt lat="43.36404" lon="-0.6367">
        <ele>123.666748</ele>
        <time>2012-06-24T07:28:37Z</time>
      </trkpt>
      <trkpt lat="43.36425" lon="-0.63783">
        <ele>123.666748</ele>
        <time>2012-06-24T07:28:51Z</time>
      </trkpt>
      <trkpt lat="43.36405" lon="-0.63814">
        <ele>122.705444</ele>
        <time>2012-06-24T07:28:58Z</time>
      </trkpt>
      <trkpt lat="43.36403" lon="-0.63835">
        <ele>123.666748</ele>
        <time>2012-06-24T07:29:03Z</time>
      </trkpt>
      <trkpt lat="43.36424" lon="-0.63887">
        <ele>122.224731</ele>
        <time>2012-06-24T07:29:16Z</time>
      </trkpt>
      <trkpt lat="43.36432" lon="-0.63909">
        <ele>121.26355</ele>
        <time>2012-06-24T07:29:27Z</time>
      </trkpt>
      <trkpt lat="43.36432" lon="-0.6391">
        <ele>121.744141</ele>
        <time>2012-06-24T07:29:28Z</time>
      </trkpt>
      <trkpt lat="43.36432" lon="-0.63912">
        <ele>122.705444</ele>
        <time>2012-06-24T07:29:30Z</time>
      </trkpt>
      <trkpt lat="43.3643" lon="-0.63926">
        <ele>123.186157</ele>
        <time>2012-06-24T07:29:42Z</time>
      </trkpt>
      <trkpt lat="43.36434" lon="-0.63966">
        <ele>125.108765</ele>
        <time>2012-06-24T07:29:55Z</time>
      </trkpt>
      <trkpt lat="43.3644" lon="-0.64009">
        <ele>126.550659</ele>
        <time>2012-06-24T07:30:06Z</time>
      </trkpt>
      <trkpt lat="43.36438" lon="-0.64045">
        <ele>127.992554</ele>
        <time>2012-06-24T07:30:14Z</time>
      </trkpt>
      <trkpt lat="43.36449" lon="-0.64078">
        <ele>128.954102</ele>
        <time>2012-06-24T07:30:24Z</time>
      </trkpt>
      <trkpt lat="43.36458" lon="-0.64115">
        <ele>128.954102</ele>
        <time>2012-06-24T07:30:33Z</time>
      </trkpt>
      <trkpt lat="43.36463" lon="-0.64156">
        <ele>131.837891</ele>
        <time>2012-06-24T07:30:45Z</time>
      </trkpt>
      <trkpt lat="43.36461" lon="-0.64168">
        <ele>132.318604</ele>
        <time>2012-06-24T07:30:49Z</time>
      </trkpt>
      <trkpt lat="43.3646" lon="-0.64181">
        <ele>133.279907</ele>
        <time>2012-06-24T07:30:53Z</time>
      </trkpt>
      <trkpt lat="43.3646" lon="-0.64206">
        <ele>134.241211</ele>
        <time>2012-06-24T07:31:01Z</time>
      </trkpt>
      <trkpt lat="43.36458" lon="-0.64211">
        <ele>135.202515</ele>
        <time>2012-06-24T07:31:03Z</time>
      </trkpt>
      <trkpt lat="43.36456" lon="-0.64216">
        <ele>135.202515</ele>
        <time>2012-06-24T07:31:05Z</time>
      </trkpt>
      <trkpt lat="43.36458" lon="-0.64239">
        <ele>135.202515</ele>
        <time>2012-06-24T07:31:12Z</time>
      </trkpt>
      <trkpt lat="43.36459" lon="-0.64249">
        <ele>135.683105</ele>
        <time>2012-06-24T07:31:15Z</time>
      </trkpt>
      <trkpt lat="43.3646" lon="-0.64272">
        <ele>134.721924</ele>
        <time>2012-06-24T07:31:20Z</time>
      </trkpt>
      <trkpt lat="43.36476" lon="-0.64312">
        <ele>133.760498</ele>
        <time>2012-06-24T07:31:33Z</time>
      </trkpt>
      <trkpt lat="43.36487" lon="-0.64356">
        <ele>134.241211</ele>
        <time>2012-06-24T07:31:42Z</time>
      </trkpt>
      <trkpt lat="43.36498" lon="-0.64407">
        <ele>134.721924</ele>
        <time>2012-06-24T07:31:54Z</time>
      </trkpt>
      <trkpt lat="43.36507" lon="-0.64443">
        <ele>133.760498</ele>
        <time>2012-06-24T07:32:03Z</time>
      </trkpt>
      <trkpt lat="43.36506" lon="-0.64477">
        <ele>135.683105</ele>
        <time>2012-06-24T07:32:14Z</time>
      </trkpt>
      <trkpt lat="43.36503" lon="-0.64486">
        <ele>136.16394</ele>
        <time>2012-06-24T07:32:17Z</time>
      </trkpt>
      <trkpt lat="43.365" lon="-0.64505">
        <ele>136.644653</ele>
        <time>2012-06-24T07:32:24Z</time>
      </trkpt>
      <trkpt lat="43.36498" lon="-0.64545">
        <ele>138.086548</ele>
        <time>2012-06-24T07:32:37Z</time>
      </trkpt>
      <trkpt lat="43.36497" lon="-0.64548">
        <ele>138.086548</ele>
        <time>2012-06-24T07:32:38Z</time>
      </trkpt>
      <trkpt lat="43.36492" lon="-0.64567">
        <ele>139.528442</ele>
        <time>2012-06-24T07:32:44Z</time>
      </trkpt>
      <trkpt lat="43.36489" lon="-0.64579">
        <ele>140.009155</ele>
        <time>2012-06-24T07:32:48Z</time>
      </trkpt>
      <trkpt lat="43.36477" lon="-0.64624">
        <ele>141.931763</ele>
        <time>2012-06-24T07:33:05Z</time>
      </trkpt>
      <trkpt lat="43.36476" lon="-0.64628">
        <ele>142.412476</ele>
        <time>2012-06-24T07:33:07Z</time>
      </trkpt>
      <trkpt lat="43.36459" lon="-0.64639">
        <ele>145.296387</ele>
        <time>2012-06-24T07:33:16Z</time>
      </trkpt>
      <trkpt lat="43.36445" lon="-0.64637">
        <ele>148.661011</ele>
        <time>2012-06-24T07:33:25Z</time>
      </trkpt>
      <trkpt lat="43.36442" lon="-0.64637">
        <ele>149.141602</ele>
        <time>2012-06-24T07:33:27Z</time>
      </trkpt>
      <trkpt lat="43.36439" lon="-0.64634">
        <ele>150.103027</ele>
        <time>2012-06-24T07:33:29Z</time>
      </trkpt>
      <trkpt lat="43.36412" lon="-0.64628">
        <ele>152.025757</ele>
        <time>2012-06-24T07:33:45Z</time>
      </trkpt>
      <trkpt lat="43.36403" lon="-0.64622">
        <ele>155.390259</ele>
        <time>2012-06-24T07:33:51Z</time>
      </trkpt>
      <trkpt lat="43.36402" lon="-0.64621">
        <ele>155.390259</ele>
        <time>2012-06-24T07:33:52Z</time>
      </trkpt>
      <trkpt lat="43.36382" lon="-0.64608">
        <ele>159.235474</ele>
        <time>2012-06-24T07:34:05Z</time>
      </trkpt>
      <trkpt lat="43.36378" lon="-0.64611">
        <ele>160.196899</ele>
        <time>2012-06-24T07:34:09Z</time>
      </trkpt>
      <trkpt lat="43.36365" lon="-0.64628">
        <ele>160.196899</ele>
        <time>2012-06-24T07:34:20Z</time>
      </trkpt>
      <trkpt lat="43.36345" lon="-0.64641">
        <ele>161.638916</ele>
        <time>2012-06-24T07:34:32Z</time>
      </trkpt>
      <trkpt lat="43.36344" lon="-0.64651">
        <ele>162.119507</ele>
        <time>2012-06-24T07:34:36Z</time>
      </trkpt>
      <trkpt lat="43.36349" lon="-0.64674">
        <ele>160.67749</ele>
        <time>2012-06-24T07:34:41Z</time>
      </trkpt>
      <trkpt lat="43.36352" lon="-0.64694">
        <ele>159.716187</ele>
        <time>2012-06-24T07:34:44Z</time>
      </trkpt>
      <trkpt lat="43.36355" lon="-0.64713">
        <ele>157.793579</ele>
        <time>2012-06-24T07:34:47Z</time>
      </trkpt>
      <trkpt lat="43.36354" lon="-0.64726">
        <ele>158.754761</ele>
        <time>2012-06-24T07:34:51Z</time>
      </trkpt>
      <trkpt lat="43.36349" lon="-0.64733">
        <ele>160.67749</ele>
        <time>2012-06-24T07:34:55Z</time>
      </trkpt>
      <trkpt lat="43.36329" lon="-0.6475">
        <ele>163.080811</ele>
        <time>2012-06-24T07:35:10Z</time>
      </trkpt>
      <trkpt lat="43.36305" lon="-0.64761">
        <ele>166.926025</ele>
        <time>2012-06-24T07:35:26Z</time>
      </trkpt>
      <trkpt lat="43.36275" lon="-0.64774">
        <ele>168.368042</ele>
        <time>2012-06-24T07:35:44Z</time>
      </trkpt>
      <trkpt lat="43.36246" lon="-0.64784">
        <ele>168.368042</ele>
        <time>2012-06-24T07:35:58Z</time>
      </trkpt>
      <trkpt lat="43.36201" lon="-0.64808">
        <ele>170.290649</ele>
        <time>2012-06-24T07:36:12Z</time>
      </trkpt>
      <trkpt lat="43.36163" lon="-0.64816">
        <ele>171.252075</ele>
        <time>2012-06-24T07:36:27Z</time>
      </trkpt>
      <trkpt lat="43.3611" lon="-0.64809">
        <ele>173.174683</ele>
        <time>2012-06-24T07:36:48Z</time>
      </trkpt>
      <trkpt lat="43.36077" lon="-0.64805">
        <ele>176.539307</ele>
        <time>2012-06-24T07:37:02Z</time>
      </trkpt>
      <trkpt lat="43.36059" lon="-0.64804">
        <ele>177.02002</ele>
        <time>2012-06-24T07:37:13Z</time>
      </trkpt>
      <trkpt lat="43.36058" lon="-0.64804">
        <ele>176.539307</ele>
        <time>2012-06-24T07:37:14Z</time>
      </trkpt>
      <trkpt lat="43.36043" lon="-0.64804">
        <ele>177.50061</ele>
        <time>2012-06-24T07:37:27Z</time>
      </trkpt>
      <trkpt lat="43.36016" lon="-0.64817">
        <ele>178.942627</ele>
        <time>2012-06-24T07:37:39Z</time>
      </trkpt>
      <trkpt lat="43.36002" lon="-0.64833">
        <ele>181.826416</ele>
        <time>2012-06-24T07:37:47Z</time>
      </trkpt>
      <trkpt lat="43.35994" lon="-0.64839">
        <ele>182.787842</ele>
        <time>2012-06-24T07:37:51Z</time>
      </trkpt>
      <trkpt lat="43.35986" lon="-0.64848">
        <ele>183.268433</ele>
        <time>2012-06-24T07:37:56Z</time>
      </trkpt>
      <trkpt lat="43.35979" lon="-0.64883">
        <ele>184.710571</ele>
        <time>2012-06-24T07:38:07Z</time>
      </trkpt>
      <trkpt lat="43.3596" lon="-0.6492">
        <ele>186.633179</ele>
        <time>2012-06-24T07:38:22Z</time>
      </trkpt>
      <trkpt lat="43.35944" lon="-0.64936">
        <ele>189.516968</ele>
        <time>2012-06-24T07:38:33Z</time>
      </trkpt>
      <trkpt lat="43.35928" lon="-0.64949">
        <ele>192.881714</ele>
        <time>2012-06-24T07:38:45Z</time>
      </trkpt>
      <trkpt lat="43.35894" lon="-0.64954">
        <ele>194.804321</ele>
        <time>2012-06-24T07:39:04Z</time>
      </trkpt>
      <trkpt lat="43.35879" lon="-0.64955">
        <ele>194.32373</ele>
        <time>2012-06-24T07:39:12Z</time>
      </trkpt>
      <trkpt lat="43.35871" lon="-0.64961">
        <ele>194.804321</ele>
        <time>2012-06-24T07:39:15Z</time>
      </trkpt>
      <trkpt lat="43.35836" lon="-0.64973">
        <ele>193.362305</ele>
        <time>2012-06-24T07:39:23Z</time>
      </trkpt>
      <trkpt lat="43.35828" lon="-0.64985">
        <ele>193.362305</ele>
        <time>2012-06-24T07:39:26Z</time>
      </trkpt>
      <trkpt lat="43.35784" lon="-0.65026">
        <ele>193.362305</ele>
        <time>2012-06-24T07:39:40Z</time>
      </trkpt>
      <trkpt lat="43.35748" lon="-0.65058">
        <ele>193.362305</ele>
        <time>2012-06-24T07:39:51Z</time>
      </trkpt>
      <trkpt lat="43.35706" lon="-0.65097">
        <ele>193.362305</ele>
        <time>2012-06-24T07:40:05Z</time>
      </trkpt>
      <trkpt lat="43.35693" lon="-0.65111">
        <ele>192.401123</ele>
        <time>2012-06-24T07:40:09Z</time>
      </trkpt>
      <trkpt lat="43.35681" lon="-0.6512">
        <ele>191.920288</ele>
        <time>2012-06-24T07:40:12Z</time>
      </trkpt>
      <trkpt lat="43.35654" lon="-0.65129">
        <ele>190.478394</ele>
        <time>2012-06-24T07:40:17Z</time>
      </trkpt>
      <trkpt lat="43.35635" lon="-0.65128">
        <ele>189.516968</ele>
        <time>2012-06-24T07:40:20Z</time>
      </trkpt>
      <trkpt lat="43.35611" lon="-0.65137">
        <ele>186.633179</ele>
        <time>2012-06-24T07:40:24Z</time>
      </trkpt>
      <trkpt lat="43.35597" lon="-0.65146">
        <ele>186.152466</ele>
        <time>2012-06-24T07:40:26Z</time>
      </trkpt>
      <trkpt lat="43.35531" lon="-0.65167">
        <ele>182.787842</ele>
        <time>2012-06-24T07:40:35Z</time>
      </trkpt>
      <trkpt lat="43.35455" lon="-0.65202">
        <ele>180.865234</ele>
        <time>2012-06-24T07:40:46Z</time>
      </trkpt>
      <trkpt lat="43.3544" lon="-0.65214">
        <ele>179.903809</ele>
        <time>2012-06-24T07:40:50Z</time>
      </trkpt>
      <trkpt lat="43.35431" lon="-0.65222">
        <ele>178.942627</ele>
        <time>2012-06-24T07:40:52Z</time>
      </trkpt>
      <trkpt lat="43.35418" lon="-0.65236">
        <ele>180.384521</ele>
        <time>2012-06-24T07:40:55Z</time>
      </trkpt>
      <trkpt lat="43.35419" lon="-0.65284">
        <ele>180.865234</ele>
        <time>2012-06-24T07:41:03Z</time>
      </trkpt>
      <trkpt lat="43.35445" lon="-0.65322">
        <ele>182.307129</ele>
        <time>2012-06-24T07:41:15Z</time>
      </trkpt>
      <trkpt lat="43.35466" lon="-0.65357">
        <ele>185.191162</ele>
        <time>2012-06-24T07:41:27Z</time>
      </trkpt>
      <trkpt lat="43.35483" lon="-0.65383">
        <ele>186.152466</ele>
        <time>2012-06-24T07:41:37Z</time>
      </trkpt>
      <trkpt lat="43.3549" lon="-0.65397">
        <ele>186.152466</ele>
        <time>2012-06-24T07:41:42Z</time>
      </trkpt>
      <trkpt lat="43.35503" lon="-0.65422">
        <ele>189.516968</ele>
        <time>2012-06-24T07:41:51Z</time>
      </trkpt>
      <trkpt lat="43.35514" lon="-0.65464">
        <ele>192.401123</ele>
        <time>2012-06-24T07:42:07Z</time>
      </trkpt>
      <trkpt lat="43.3552" lon="-0.65489">
        <ele>193.843018</ele>
        <time>2012-06-24T07:42:19Z</time>
      </trkpt>
      <trkpt lat="43.35527" lon="-0.65509">
        <ele>196.246338</ele>
        <time>2012-06-24T07:42:29Z</time>
      </trkpt>
      <trkpt lat="43.35542" lon="-0.65548">
        <ele>197.20752</ele>
        <time>2012-06-24T07:42:45Z</time>
      </trkpt>
      <trkpt lat="43.35542" lon="-0.65601">
        <ele>201.052856</ele>
        <time>2012-06-24T07:43:01Z</time>
      </trkpt>
      <trkpt lat="43.35541" lon="-0.65604">
        <ele>201.052856</ele>
        <time>2012-06-24T07:43:02Z</time>
      </trkpt>
      <trkpt lat="43.35527" lon="-0.65649">
        <ele>201.533569</ele>
        <time>2012-06-24T07:43:15Z</time>
      </trkpt>
      <trkpt lat="43.35522" lon="-0.65705">
        <ele>202.975464</ele>
        <time>2012-06-24T07:43:27Z</time>
      </trkpt>
      <trkpt lat="43.35523" lon="-0.65758">
        <ele>205.378784</ele>
        <time>2012-06-24T07:43:40Z</time>
      </trkpt>
      <trkpt lat="43.35522" lon="-0.65805">
        <ele>205.859497</ele>
        <time>2012-06-24T07:43:55Z</time>
      </trkpt>
      <trkpt lat="43.35532" lon="-0.65834">
        <ele>204.898071</ele>
        <time>2012-06-24T07:44:05Z</time>
      </trkpt>
      <trkpt lat="43.35555" lon="-0.65837">
        <ele>204.898071</ele>
        <time>2012-06-24T07:44:14Z</time>
      </trkpt>
      <trkpt lat="43.35635" lon="-0.65871">
        <ele>203.93689</ele>
        <time>2012-06-24T07:44:29Z</time>
      </trkpt>
      <trkpt lat="43.35705" lon="-0.65922">
        <ele>204.898071</ele>
        <time>2012-06-24T07:44:44Z</time>
      </trkpt>
      <trkpt lat="43.35751" lon="-0.65968">
        <ele>207.301392</ele>
        <time>2012-06-24T07:44:59Z</time>
      </trkpt>
      <trkpt lat="43.3578" lon="-0.65998">
        <ele>210.666016</ele>
        <time>2012-06-24T07:45:11Z</time>
      </trkpt>
      <trkpt lat="43.35796" lon="-0.66008">
        <ele>210.666016</ele>
        <time>2012-06-24T07:45:16Z</time>
      </trkpt>
      <trkpt lat="43.35806" lon="-0.66082">
        <ele>207.782104</ele>
        <time>2012-06-24T07:45:26Z</time>
      </trkpt>
      <trkpt lat="43.35822" lon="-0.66198">
        <ele>204.898071</ele>
        <time>2012-06-24T07:45:37Z</time>
      </trkpt>
      <trkpt lat="43.35854" lon="-0.66312">
        <ele>205.378784</ele>
        <time>2012-06-24T07:45:51Z</time>
      </trkpt>
      <trkpt lat="43.35895" lon="-0.6638">
        <ele>208.262817</ele>
        <time>2012-06-24T07:46:05Z</time>
      </trkpt>
      <trkpt lat="43.35937" lon="-0.66432">
        <ele>211.627441</ele>
        <time>2012-06-24T07:46:22Z</time>
      </trkpt>
      <trkpt lat="43.35942" lon="-0.66437">
        <ele>212.588623</ele>
        <time>2012-06-24T07:46:24Z</time>
      </trkpt>
      <trkpt lat="43.35997" lon="-0.6645">
        <ele>214.51123</ele>
        <time>2012-06-24T07:46:41Z</time>
      </trkpt>
      <trkpt lat="43.36067" lon="-0.66451">
        <ele>213.069336</ele>
        <time>2012-06-24T07:46:55Z</time>
      </trkpt>
      <trkpt lat="43.36088" lon="-0.66458">
        <ele>213.069336</ele>
        <time>2012-06-24T07:46:59Z</time>
      </trkpt>
      <trkpt lat="43.36112" lon="-0.66459">
        <ele>211.627441</ele>
        <time>2012-06-24T07:47:03Z</time>
      </trkpt>
      <trkpt lat="43.36132" lon="-0.66452">
        <ele>210.185425</ele>
        <time>2012-06-24T07:47:06Z</time>
      </trkpt>
      <trkpt lat="43.36163" lon="-0.66435">
        <ele>212.588623</ele>
        <time>2012-06-24T07:47:12Z</time>
      </trkpt>
      <trkpt lat="43.36193" lon="-0.66444">
        <ele>213.069336</ele>
        <time>2012-06-24T07:47:19Z</time>
      </trkpt>
      <trkpt lat="43.36247" lon="-0.6651">
        <ele>211.146729</ele>
        <time>2012-06-24T07:47:31Z</time>
      </trkpt>
      <trkpt lat="43.36287" lon="-0.66543">
        <ele>211.627441</ele>
        <time>2012-06-24T07:47:38Z</time>
      </trkpt>
      <trkpt lat="43.36329" lon="-0.66552">
        <ele>214.991943</ele>
        <time>2012-06-24T07:47:49Z</time>
      </trkpt>
      <trkpt lat="43.36342" lon="-0.6655">
        <ele>215.953247</ele>
        <time>2012-06-24T07:47:53Z</time>
      </trkpt>
      <trkpt lat="43.36392" lon="-0.66553">
        <ele>217.395386</ele>
        <time>2012-06-24T07:48:08Z</time>
      </trkpt>
      <trkpt lat="43.36453" lon="-0.66574">
        <ele>220.279175</ele>
        <time>2012-06-24T07:48:23Z</time>
      </trkpt>
      <trkpt lat="43.36491" lon="-0.66578">
        <ele>223.643799</ele>
        <time>2012-06-24T07:48:37Z</time>
      </trkpt>
      <trkpt lat="43.36501" lon="-0.6657">
        <ele>225.085938</ele>
        <time>2012-06-24T07:48:42Z</time>
      </trkpt>
      <trkpt lat="43.36505" lon="-0.66579">
        <ele>225.085938</ele>
        <time>2012-06-24T07:48:47Z</time>
      </trkpt>
      <trkpt lat="43.36493" lon="-0.66646">
        <ele>226.047119</ele>
        <time>2012-06-24T07:49:03Z</time>
      </trkpt>
      <trkpt lat="43.36482" lon="-0.66686">
        <ele>227.008545</ele>
        <time>2012-06-24T07:49:15Z</time>
      </trkpt>
      <trkpt lat="43.36457" lon="-0.66729">
        <ele>224.605225</ele>
        <time>2012-06-24T07:49:27Z</time>
      </trkpt>
      <trkpt lat="43.36431" lon="-0.66761">
        <ele>223.163208</ele>
        <time>2012-06-24T07:49:37Z</time>
      </trkpt>
      <trkpt lat="43.364" lon="-0.66777">
        <ele>224.124512</ele>
        <time>2012-06-24T07:49:48Z</time>
      </trkpt>
      <trkpt lat="43.36351" lon="-0.6681">
        <ele>221.240601</ele>
        <time>2012-06-24T07:50:02Z</time>
      </trkpt>
      <trkpt lat="43.36305" lon="-0.66842">
        <ele>217.875977</ele>
        <time>2012-06-24T07:50:14Z</time>
      </trkpt>
      <trkpt lat="43.36286" lon="-0.66857">
        <ele>214.03064</ele>
        <time>2012-06-24T07:50:18Z</time>
      </trkpt>
      <trkpt lat="43.3628" lon="-0.66861">
        <ele>214.03064</ele>
        <time>2012-06-24T07:50:19Z</time>
      </trkpt>
      <trkpt lat="43.3626" lon="-0.6687">
        <ele>212.108032</ele>
        <time>2012-06-24T07:50:23Z</time>
      </trkpt>
      <trkpt lat="43.36245" lon="-0.66872">
        <ele>211.146729</ele>
        <time>2012-06-24T07:50:26Z</time>
      </trkpt>
      <trkpt lat="43.36229" lon="-0.66877">
        <ele>210.185425</ele>
        <time>2012-06-24T07:50:34Z</time>
      </trkpt>
      <trkpt lat="43.36225" lon="-0.66873">
        <ele>209.704834</ele>
        <time>2012-06-24T07:50:48Z</time>
      </trkpt>
      <trkpt lat="43.36221" lon="-0.66879">
        <ele>208.262817</ele>
        <time>2012-06-24T07:50:58Z</time>
      </trkpt>
      <trkpt lat="43.36221" lon="-0.66883">
        <ele>207.782104</ele>
        <time>2012-06-24T07:51:01Z</time>
      </trkpt>
      <trkpt lat="43.36208" lon="-0.66895">
        <ele>206.340088</ele>
        <time>2012-06-24T07:51:14Z</time>
      </trkpt>
      <trkpt lat="43.36205" lon="-0.66899">
        <ele>207.782104</ele>
        <time>2012-06-24T07:51:19Z</time>
      </trkpt>
      <trkpt lat="43.36207" lon="-0.6691">
        <ele>206.820679</ele>
        <time>2012-06-24T07:51:28Z</time>
      </trkpt>
      <trkpt lat="43.36209" lon="-0.66914">
        <ele>206.820679</ele>
        <time>2012-06-24T07:51:30Z</time>
      </trkpt>
      <trkpt lat="43.36209" lon="-0.66929">
        <ele>207.301392</ele>
        <time>2012-06-24T07:51:36Z</time>
      </trkpt>
      <trkpt lat="43.36211" lon="-0.66971">
        <ele>208.743408</ele>
        <time>2012-06-24T07:51:49Z</time>
      </trkpt>
      <trkpt lat="43.36209" lon="-0.66991">
        <ele>210.666016</ele>
        <time>2012-06-24T07:52:01Z</time>
      </trkpt>
      <trkpt lat="43.36207" lon="-0.67012">
        <ele>214.03064</ele>
        <time>2012-06-24T07:52:12Z</time>
      </trkpt>
      <trkpt lat="43.36207" lon="-0.67017">
        <ele>213.069336</ele>
        <time>2012-06-24T07:52:15Z</time>
      </trkpt>
      <trkpt lat="43.36209" lon="-0.6702">
        <ele>214.51123</ele>
        <time>2012-06-24T07:52:17Z</time>
      </trkpt>
      <trkpt lat="43.36215" lon="-0.67033">
        <ele>214.03064</ele>
        <time>2012-06-24T07:52:24Z</time>
      </trkpt>
      <trkpt lat="43.36228" lon="-0.67062">
        <ele>213.069336</ele>
        <time>2012-06-24T07:52:35Z</time>
      </trkpt>
      <trkpt lat="43.36245" lon="-0.67078">
        <ele>213.069336</ele>
        <time>2012-06-24T07:52:43Z</time>
      </trkpt>
      <trkpt lat="43.36261" lon="-0.67102">
        <ele>211.627441</ele>
        <time>2012-06-24T07:52:50Z</time>
      </trkpt>
      <trkpt lat="43.36289" lon="-0.67122">
        <ele>210.185425</ele>
        <time>2012-06-24T07:52:56Z</time>
      </trkpt>
      <trkpt lat="43.36352" lon="-0.67136">
        <ele>206.820679</ele>
        <time>2012-06-24T07:53:05Z</time>
      </trkpt>
      <trkpt lat="43.36422" lon="-0.67194">
        <ele>205.859497</ele>
        <time>2012-06-24T07:53:17Z</time>
      </trkpt>
      <trkpt lat="43.36462" lon="-0.67238">
        <ele>208.262817</ele>
        <time>2012-06-24T07:53:28Z</time>
      </trkpt>
      <trkpt lat="43.36465" lon="-0.67241">
        <ele>208.743408</ele>
        <time>2012-06-24T07:53:29Z</time>
      </trkpt>
      <trkpt lat="43.3648" lon="-0.67258">
        <ele>212.588623</ele>
        <time>2012-06-24T07:53:37Z</time>
      </trkpt>
      <trkpt lat="43.36482" lon="-0.6726">
        <ele>212.588623</ele>
        <time>2012-06-24T07:53:38Z</time>
      </trkpt>
      <trkpt lat="43.36503" lon="-0.67281">
        <ele>214.991943</ele>
        <time>2012-06-24T07:53:50Z</time>
      </trkpt>
      <trkpt lat="43.36534" lon="-0.67299">
        <ele>215.472656</ele>
        <time>2012-06-24T07:54:03Z</time>
      </trkpt>
      <trkpt lat="43.36561" lon="-0.6732">
        <ele>215.953247</ele>
        <time>2012-06-24T07:54:12Z</time>
      </trkpt>
      <trkpt lat="43.36587" lon="-0.67334">
        <ele>215.953247</ele>
        <time>2012-06-24T07:54:18Z</time>
      </trkpt>
      <trkpt lat="43.36619" lon="-0.67342">
        <ele>215.953247</ele>
        <time>2012-06-24T07:54:25Z</time>
      </trkpt>
      <trkpt lat="43.36685" lon="-0.67329">
        <ele>218.83728</ele>
        <time>2012-06-24T07:54:42Z</time>
      </trkpt>
      <trkpt lat="43.36717" lon="-0.67325">
        <ele>222.201782</ele>
        <time>2012-06-24T07:54:52Z</time>
      </trkpt>
      <trkpt lat="43.36753" lon="-0.67324">
        <ele>225.085938</ele>
        <time>2012-06-24T07:55:05Z</time>
      </trkpt>
      <trkpt lat="43.36799" lon="-0.67332">
        <ele>223.163208</ele>
        <time>2012-06-24T07:55:17Z</time>
      </trkpt>
      <trkpt lat="43.36841" lon="-0.67355">
        <ele>223.163208</ele>
        <time>2012-06-24T07:55:25Z</time>
      </trkpt>
      <trkpt lat="43.3688" lon="-0.67387">
        <ele>222.201782</ele>
        <time>2012-06-24T07:55:32Z</time>
      </trkpt>
      <trkpt lat="43.36926" lon="-0.6741">
        <ele>221.721191</ele>
        <time>2012-06-24T07:55:39Z</time>
      </trkpt>
      <trkpt lat="43.36942" lon="-0.6744">
        <ele>221.721191</ele>
        <time>2012-06-24T07:55:44Z</time>
      </trkpt>
      <trkpt lat="43.36951" lon="-0.67462">
        <ele>220.759888</ele>
        <time>2012-06-24T07:55:48Z</time>
      </trkpt>
      <trkpt lat="43.36953" lon="-0.67463">
        <ele>219.317993</ele>
        <time>2012-06-24T07:55:59Z</time>
      </trkpt>
      <trkpt lat="43.36955" lon="-0.67449">
        <ele>217.875977</ele>
        <time>2012-06-24T07:56:05Z</time>
      </trkpt>
      <trkpt lat="43.36963" lon="-0.67408">
        <ele>215.472656</ele>
        <time>2012-06-24T07:56:11Z</time>
      </trkpt>
      <trkpt lat="43.36976" lon="-0.67393">
        <ele>214.03064</ele>
        <time>2012-06-24T07:56:13Z</time>
      </trkpt>
      <trkpt lat="43.37008" lon="-0.67358">
        <ele>213.550049</ele>
        <time>2012-06-24T07:56:18Z</time>
      </trkpt>
      <trkpt lat="43.3704" lon="-0.67336">
        <ele>212.588623</ele>
        <time>2012-06-24T07:56:23Z</time>
      </trkpt>
      <trkpt lat="43.37134" lon="-0.67306">
        <ele>211.627441</ele>
        <time>2012-06-24T07:56:37Z</time>
      </trkpt>
      <trkpt lat="43.37183" lon="-0.6729">
        <ele>212.588623</ele>
        <time>2012-06-24T07:56:46Z</time>
      </trkpt>
      <trkpt lat="43.37193" lon="-0.67288">
        <ele>212.588623</ele>
        <time>2012-06-24T07:56:48Z</time>
      </trkpt>
      <trkpt lat="43.3721" lon="-0.67279">
        <ele>212.588623</ele>
        <time>2012-06-24T07:56:51Z</time>
      </trkpt>
      <trkpt lat="43.37276" lon="-0.67254">
        <ele>212.588623</ele>
        <time>2012-06-24T07:57:02Z</time>
      </trkpt>
      <trkpt lat="43.37313" lon="-0.6727">
        <ele>213.069336</ele>
        <time>2012-06-24T07:57:11Z</time>
      </trkpt>
      <trkpt lat="43.37317" lon="-0.67273">
        <ele>213.069336</ele>
        <time>2012-06-24T07:57:12Z</time>
      </trkpt>
      <trkpt lat="43.37332" lon="-0.67289">
        <ele>213.069336</ele>
        <time>2012-06-24T07:57:16Z</time>
      </trkpt>
      <trkpt lat="43.37345" lon="-0.67298">
        <ele>212.588623</ele>
        <time>2012-06-24T07:57:19Z</time>
      </trkpt>
      <trkpt lat="43.37364" lon="-0.67306">
        <ele>207.782104</ele>
        <time>2012-06-24T07:57:23Z</time>
      </trkpt>
      <trkpt lat="43.37373" lon="-0.67309">
        <ele>205.378784</ele>
        <time>2012-06-24T07:57:25Z</time>
      </trkpt>
      <trkpt lat="43.37387" lon="-0.67317">
        <ele>202.014282</ele>
        <time>2012-06-24T07:57:28Z</time>
      </trkpt>
      <trkpt lat="43.37398" lon="-0.67328">
        <ele>199.130127</ele>
        <time>2012-06-24T07:57:31Z</time>
      </trkpt>
      <trkpt lat="43.37412" lon="-0.67358">
        <ele>194.804321</ele>
        <time>2012-06-24T07:57:37Z</time>
      </trkpt>
      <trkpt lat="43.37413" lon="-0.6736">
        <ele>194.32373</ele>
        <time>2012-06-24T07:57:38Z</time>
      </trkpt>
      <trkpt lat="43.37417" lon="-0.67363">
        <ele>193.362305</ele>
        <time>2012-06-24T07:57:40Z</time>
      </trkpt>
      <trkpt lat="43.37441" lon="-0.67362">
        <ele>189.516968</ele>
        <time>2012-06-24T07:57:46Z</time>
      </trkpt>
      <trkpt lat="43.37446" lon="-0.67362">
        <ele>188.555786</ele>
        <time>2012-06-24T07:57:47Z</time>
      </trkpt>
      <trkpt lat="43.37455" lon="-0.67362">
        <ele>186.633179</ele>
        <time>2012-06-24T07:57:49Z</time>
      </trkpt>
      <trkpt lat="43.37482" lon="-0.67354">
        <ele>181.345825</ele>
        <time>2012-06-24T07:57:55Z</time>
      </trkpt>
      <trkpt lat="43.37486" lon="-0.67355">
        <ele>180.865234</ele>
        <time>2012-06-24T07:57:56Z</time>
      </trkpt>
      <trkpt lat="43.37495" lon="-0.67352">
        <ele>179.903809</ele>
        <time>2012-06-24T07:57:58Z</time>
      </trkpt>
      <trkpt lat="43.37533" lon="-0.67327">
        <ele>180.865234</ele>
        <time>2012-06-24T07:58:05Z</time>
      </trkpt>
      <trkpt lat="43.37547" lon="-0.6732">
        <ele>179.903809</ele>
        <time>2012-06-24T07:58:08Z</time>
      </trkpt>
      <trkpt lat="43.37562" lon="-0.67314">
        <ele>181.345825</ele>
        <time>2012-06-24T07:58:12Z</time>
      </trkpt>
      <trkpt lat="43.37592" lon="-0.67321">
        <ele>182.307129</ele>
        <time>2012-06-24T07:58:22Z</time>
      </trkpt>
      <trkpt lat="43.37624" lon="-0.67315">
        <ele>183.268433</ele>
        <time>2012-06-24T07:58:34Z</time>
      </trkpt>
      <trkpt lat="43.3765" lon="-0.67319">
        <ele>179.423218</ele>
        <time>2012-06-24T07:58:40Z</time>
      </trkpt>
      <trkpt lat="43.3767" lon="-0.67331">
        <ele>174.616577</ele>
        <time>2012-06-24T07:58:44Z</time>
      </trkpt>
      <trkpt lat="43.37684" lon="-0.67335">
        <ele>171.252075</ele>
        <time>2012-06-24T07:58:47Z</time>
      </trkpt>
      <trkpt lat="43.37696" lon="-0.67334">
        <ele>169.329468</ele>
        <time>2012-06-24T07:58:49Z</time>
      </trkpt>
      <trkpt lat="43.37709" lon="-0.67326">
        <ele>166.445312</ele>
        <time>2012-06-24T07:58:52Z</time>
      </trkpt>
      <trkpt lat="43.37713" lon="-0.67321">
        <ele>165.964722</ele>
        <time>2012-06-24T07:58:53Z</time>
      </trkpt>
      <trkpt lat="43.37725" lon="-0.67275">
        <ele>163.561523</ele>
        <time>2012-06-24T07:59:00Z</time>
      </trkpt>
      <trkpt lat="43.37709" lon="-0.6721">
        <ele>162.119507</ele>
        <time>2012-06-24T07:59:08Z</time>
      </trkpt>
      <trkpt lat="43.37672" lon="-0.67172">
        <ele>160.196899</ele>
        <time>2012-06-24T07:59:19Z</time>
      </trkpt>
      <trkpt lat="43.37653" lon="-0.67153">
        <ele>155.870972</ele>
        <time>2012-06-24T07:59:23Z</time>
      </trkpt>
      <trkpt lat="43.37642" lon="-0.67128">
        <ele>152.025757</ele>
        <time>2012-06-24T07:59:27Z</time>
      </trkpt>
      <trkpt lat="43.37639" lon="-0.67119">
        <ele>150.583618</ele>
        <time>2012-06-24T07:59:29Z</time>
      </trkpt>
      <trkpt lat="43.37634" lon="-0.6711">
        <ele>149.141602</ele>
        <time>2012-06-24T07:59:31Z</time>
      </trkpt>
      <trkpt lat="43.37628" lon="-0.67102">
        <ele>147.218994</ele>
        <time>2012-06-24T07:59:33Z</time>
      </trkpt>
      <trkpt lat="43.37619" lon="-0.67086">
        <ele>146.738403</ele>
        <time>2012-06-24T07:59:42Z</time>
      </trkpt>
      <trkpt lat="43.37614" lon="-0.67075">
        <ele>146.257812</ele>
        <time>2012-06-24T07:59:51Z</time>
      </trkpt>
      <trkpt lat="43.37606" lon="-0.67058">
        <ele>142.893066</ele>
        <time>2012-06-24T07:59:59Z</time>
      </trkpt>
      <trkpt lat="43.37602" lon="-0.67044">
        <ele>143.85437</ele>
        <time>2012-06-24T08:00:10Z</time>
      </trkpt>
      <trkpt lat="43.376" lon="-0.67036">
        <ele>141.931763</ele>
        <time>2012-06-24T08:00:13Z</time>
      </trkpt>
      <trkpt lat="43.37603" lon="-0.67027">
        <ele>140.489868</ele>
        <time>2012-06-24T08:00:23Z</time>
      </trkpt>
      <trkpt lat="43.37606" lon="-0.67027">
        <ele>140.970459</ele>
        <time>2012-06-24T08:00:27Z</time>
      </trkpt>
      <trkpt lat="43.37609" lon="-0.67026">
        <ele>141.45105</ele>
        <time>2012-06-24T08:00:30Z</time>
      </trkpt>
      <trkpt lat="43.3762" lon="-0.67012">
        <ele>142.412476</ele>
        <time>2012-06-24T08:00:39Z</time>
      </trkpt>
      <trkpt lat="43.37619" lon="-0.66999">
        <ele>145.296387</ele>
        <time>2012-06-24T08:00:52Z</time>
      </trkpt>
      <trkpt lat="43.37627" lon="-0.66994">
        <ele>147.218994</ele>
        <time>2012-06-24T08:01:05Z</time>
      </trkpt>
      <trkpt lat="43.37651" lon="-0.66998">
        <ele>150.103027</ele>
        <time>2012-06-24T08:01:19Z</time>
      </trkpt>
      <trkpt lat="43.37657" lon="-0.66997">
        <ele>152.025757</ele>
        <time>2012-06-24T08:01:23Z</time>
      </trkpt>
      <trkpt lat="43.37671" lon="-0.66993">
        <ele>153.948364</ele>
        <time>2012-06-24T08:01:35Z</time>
      </trkpt>
      <trkpt lat="43.37676" lon="-0.66989">
        <ele>155.870972</ele>
        <time>2012-06-24T08:01:44Z</time>
      </trkpt>
      <trkpt lat="43.37695" lon="-0.66993">
        <ele>158.754761</ele>
        <time>2012-06-24T08:01:58Z</time>
      </trkpt>
      <trkpt lat="43.37709" lon="-0.66994">
        <ele>161.638916</ele>
        <time>2012-06-24T08:02:09Z</time>
      </trkpt>
      <trkpt lat="43.37724" lon="-0.66989">
        <ele>163.080811</ele>
        <time>2012-06-24T08:02:23Z</time>
      </trkpt>
      <trkpt lat="43.37726" lon="-0.66983">
        <ele>164.522705</ele>
        <time>2012-06-24T08:02:28Z</time>
      </trkpt>
      <trkpt lat="43.37726" lon="-0.66979">
        <ele>166.445312</ele>
        <time>2012-06-24T08:02:31Z</time>
      </trkpt>
      <trkpt lat="43.37723" lon="-0.66967">
        <ele>168.368042</ele>
        <time>2012-06-24T08:02:39Z</time>
      </trkpt>
      <trkpt lat="43.37718" lon="-0.66953">
        <ele>170.290649</ele>
        <time>2012-06-24T08:02:48Z</time>
      </trkpt>
      <trkpt lat="43.37717" lon="-0.66951">
        <ele>170.290649</ele>
        <time>2012-06-24T08:02:49Z</time>
      </trkpt>
      <trkpt lat="43.37715" lon="-0.66922">
        <ele>172.69397</ele>
        <time>2012-06-24T08:03:06Z</time>
      </trkpt>
      <trkpt lat="43.37714" lon="-0.66916">
        <ele>174.135864</ele>
        <time>2012-06-24T08:03:10Z</time>
      </trkpt>
      <trkpt lat="43.37707" lon="-0.6688">
        <ele>177.50061</ele>
        <time>2012-06-24T08:03:31Z</time>
      </trkpt>
      <trkpt lat="43.37707" lon="-0.66861">
        <ele>179.423218</ele>
        <time>2012-06-24T08:03:50Z</time>
      </trkpt>
      <trkpt lat="43.37706" lon="-0.6686">
        <ele>179.423218</ele>
        <time>2012-06-24T08:03:51Z</time>
      </trkpt>
      <trkpt lat="43.37704" lon="-0.66843">
        <ele>180.384521</ele>
        <time>2012-06-24T08:04:00Z</time>
      </trkpt>
      <trkpt lat="43.37705" lon="-0.66822">
        <ele>182.307129</ele>
        <time>2012-06-24T08:04:09Z</time>
      </trkpt>
      <trkpt lat="43.3769" lon="-0.66796">
        <ele>183.268433</ele>
        <time>2012-06-24T08:04:22Z</time>
      </trkpt>
      <trkpt lat="43.37681" lon="-0.66741">
        <ele>184.229858</ele>
        <time>2012-06-24T08:04:39Z</time>
      </trkpt>
      <trkpt lat="43.37677" lon="-0.66692">
        <ele>187.11377</ele>
        <time>2012-06-24T08:04:52Z</time>
      </trkpt>
      <trkpt lat="43.3766" lon="-0.66597">
        <ele>188.555786</ele>
        <time>2012-06-24T08:05:10Z</time>
      </trkpt>
      <trkpt lat="43.37649" lon="-0.66543">
        <ele>186.633179</ele>
        <time>2012-06-24T08:05:21Z</time>
      </trkpt>
      <trkpt lat="43.37663" lon="-0.66535">
        <ele>185.191162</ele>
        <time>2012-06-24T08:05:26Z</time>
      </trkpt>
      <trkpt lat="43.37749" lon="-0.66546">
        <ele>182.307129</ele>
        <time>2012-06-24T08:05:42Z</time>
      </trkpt>
      <trkpt lat="43.37756" lon="-0.66547">
        <ele>182.307129</ele>
        <time>2012-06-24T08:05:43Z</time>
      </trkpt>
      <trkpt lat="43.37762" lon="-0.66548">
        <ele>182.307129</ele>
        <time>2012-06-24T08:05:44Z</time>
      </trkpt>
      <trkpt lat="43.3778" lon="-0.66557">
        <ele>181.826416</ele>
        <time>2012-06-24T08:05:47Z</time>
      </trkpt>
      <trkpt lat="43.37837" lon="-0.66632">
        <ele>180.384521</ele>
        <time>2012-06-24T08:06:00Z</time>
      </trkpt>
      <trkpt lat="43.37876" lon="-0.66725">
        <ele>177.50061</ele>
        <time>2012-06-24T08:06:11Z</time>
      </trkpt>
      <trkpt lat="43.37894" lon="-0.66745">
        <ele>177.02002</ele>
        <time>2012-06-24T08:06:19Z</time>
      </trkpt>
      <trkpt lat="43.379" lon="-0.66752">
        <ele>177.02002</ele>
        <time>2012-06-24T08:06:33Z</time>
      </trkpt>
      <trkpt lat="43.37905" lon="-0.6676">
        <ele>177.50061</ele>
        <time>2012-06-24T08:06:48Z</time>
      </trkpt>
      <trkpt lat="43.37903" lon="-0.66759">
        <ele>177.50061</ele>
        <time>2012-06-24T08:06:50Z</time>
      </trkpt>
      <trkpt lat="43.37901" lon="-0.66756">
        <ele>177.02002</ele>
        <time>2012-06-24T08:07:04Z</time>
      </trkpt>
      <trkpt lat="43.379" lon="-0.66756">
        <ele>176.539307</ele>
        <time>2012-06-24T08:07:17Z</time>
      </trkpt>
      <trkpt lat="43.37899" lon="-0.66756">
        <ele>176.539307</ele>
        <time>2012-06-24T08:07:37Z</time>
      </trkpt>
      <trkpt lat="43.37903" lon="-0.66759">
        <ele>177.02002</ele>
        <time>2012-06-24T08:07:50Z</time>
      </trkpt>
      <trkpt lat="43.37905" lon="-0.66763">
        <ele>177.50061</ele>
        <time>2012-06-24T08:08:04Z</time>
      </trkpt>
      <trkpt lat="43.37908" lon="-0.66767">
        <ele>177.50061</ele>
        <time>2012-06-24T08:08:18Z</time>
      </trkpt>
      <trkpt lat="43.37909" lon="-0.66768">
        <ele>177.50061</ele>
        <time>2012-06-24T08:08:22Z</time>
      </trkpt>
      <trkpt lat="43.37922" lon="-0.66799">
        <ele>177.50061</ele>
        <time>2012-06-24T08:08:35Z</time>
      </trkpt>
      <trkpt lat="43.37926" lon="-0.66837">
        <ele>178.461914</ele>
        <time>2012-06-24T08:08:45Z</time>
      </trkpt>
      <trkpt lat="43.37955" lon="-0.66895">
        <ele>180.865234</ele>
        <time>2012-06-24T08:09:03Z</time>
      </trkpt>
      <trkpt lat="43.37972" lon="-0.66933">
        <ele>182.787842</ele>
        <time>2012-06-24T08:09:13Z</time>
      </trkpt>
      <trkpt lat="43.37998" lon="-0.66984">
        <ele>183.749023</ele>
        <time>2012-06-24T08:09:28Z</time>
      </trkpt>
      <trkpt lat="43.38028" lon="-0.67069">
        <ele>182.307129</ele>
        <time>2012-06-24T08:09:44Z</time>
      </trkpt>
      <trkpt lat="43.38039" lon="-0.67094">
        <ele>181.345825</ele>
        <time>2012-06-24T08:09:48Z</time>
      </trkpt>
      <trkpt lat="43.38054" lon="-0.6712">
        <ele>180.384521</ele>
        <time>2012-06-24T08:09:52Z</time>
      </trkpt>
      <trkpt lat="43.38062" lon="-0.67129">
        <ele>178.461914</ele>
        <time>2012-06-24T08:09:54Z</time>
      </trkpt>
      <trkpt lat="43.38076" lon="-0.67143">
        <ele>176.058594</ele>
        <time>2012-06-24T08:09:58Z</time>
      </trkpt>
      <trkpt lat="43.38084" lon="-0.67152">
        <ele>175.09729</ele>
        <time>2012-06-24T08:10:00Z</time>
      </trkpt>
      <trkpt lat="43.38105" lon="-0.67194">
        <ele>171.252075</ele>
        <time>2012-06-24T08:10:06Z</time>
      </trkpt>
      <trkpt lat="43.38121" lon="-0.67223">
        <ele>166.926025</ele>
        <time>2012-06-24T08:10:10Z</time>
      </trkpt>
      <trkpt lat="43.38135" lon="-0.67246">
        <ele>163.561523</ele>
        <time>2012-06-24T08:10:14Z</time>
      </trkpt>
      <trkpt lat="43.38144" lon="-0.67263">
        <ele>159.235474</ele>
        <time>2012-06-24T08:10:17Z</time>
      </trkpt>
      <trkpt lat="43.38151" lon="-0.67277">
        <ele>156.832153</ele>
        <time>2012-06-24T08:10:20Z</time>
      </trkpt>
      <trkpt lat="43.38156" lon="-0.67299">
        <ele>153.467651</ele>
        <time>2012-06-24T08:10:25Z</time>
      </trkpt>
      <trkpt lat="43.38167" lon="-0.67339">
        <ele>150.103027</ele>
        <time>2012-06-24T08:10:33Z</time>
      </trkpt>
      <trkpt lat="43.38176" lon="-0.67363">
        <ele>150.103027</ele>
        <time>2012-06-24T08:10:38Z</time>
      </trkpt>
      <trkpt lat="43.38176" lon="-0.67386">
        <ele>147.218994</ele>
        <time>2012-06-24T08:10:43Z</time>
      </trkpt>
      <trkpt lat="43.38178" lon="-0.67399">
        <ele>146.257812</ele>
        <time>2012-06-24T08:10:45Z</time>
      </trkpt>
      <trkpt lat="43.3818" lon="-0.67416">
        <ele>143.85437</ele>
        <time>2012-06-24T08:10:48Z</time>
      </trkpt>
      <trkpt lat="43.38179" lon="-0.67432">
        <ele>142.412476</ele>
        <time>2012-06-24T08:10:51Z</time>
      </trkpt>
      <trkpt lat="43.38182" lon="-0.67466">
        <ele>139.528442</ele>
        <time>2012-06-24T08:10:57Z</time>
      </trkpt>
      <trkpt lat="43.3818" lon="-0.67482">
        <ele>136.16394</ele>
        <time>2012-06-24T08:11:02Z</time>
      </trkpt>
      <trkpt lat="43.38178" lon="-0.67487">
        <ele>134.721924</ele>
        <time>2012-06-24T08:11:04Z</time>
      </trkpt>
      <trkpt lat="43.38176" lon="-0.67492">
        <ele>131.3573</ele>
        <time>2012-06-24T08:11:08Z</time>
      </trkpt>
      <trkpt lat="43.38178" lon="-0.67493">
        <ele>131.3573</ele>
        <time>2012-06-24T08:11:10Z</time>
      </trkpt>
      <trkpt lat="43.38187" lon="-0.67504">
        <ele>130.876709</ele>
        <time>2012-06-24T08:11:15Z</time>
      </trkpt>
      <trkpt lat="43.38198" lon="-0.67501">
        <ele>126.550659</ele>
        <time>2012-06-24T08:11:21Z</time>
      </trkpt>
      <trkpt lat="43.38198" lon="-0.67501">
        <ele>127.511963</ele>
        <time>2012-06-24T08:11:22Z</time>
      </trkpt>
      <trkpt lat="43.3821" lon="-0.675">
        <ele>127.511963</ele>
        <time>2012-06-24T08:11:34Z</time>
      </trkpt>
      <trkpt lat="43.38215" lon="-0.6749">
        <ele>125.589355</ele>
        <time>2012-06-24T08:11:47Z</time>
      </trkpt>
      <trkpt lat="43.38216" lon="-0.67482">
        <ele>125.589355</ele>
        <time>2012-06-24T08:11:51Z</time>
      </trkpt>
      <trkpt lat="43.38229" lon="-0.67449">
        <ele>125.589355</ele>
        <time>2012-06-24T08:12:07Z</time>
      </trkpt>
      <trkpt lat="43.38229" lon="-0.67447">
        <ele>125.589355</ele>
        <time>2012-06-24T08:12:09Z</time>
      </trkpt>
      <trkpt lat="43.38235" lon="-0.67433">
        <ele>125.589355</ele>
        <time>2012-06-24T08:12:16Z</time>
      </trkpt>
      <trkpt lat="43.38253" lon="-0.67399">
        <ele>124.628052</ele>
        <time>2012-06-24T08:12:31Z</time>
      </trkpt>
      <trkpt lat="43.3827" lon="-0.67373">
        <ele>125.589355</ele>
        <time>2012-06-24T08:12:46Z</time>
      </trkpt>
      <trkpt lat="43.38283" lon="-0.67353">
        <ele>125.108765</ele>
        <time>2012-06-24T08:12:59Z</time>
      </trkpt>
      <trkpt lat="43.38297" lon="-0.67333">
        <ele>125.108765</ele>
        <time>2012-06-24T08:13:09Z</time>
      </trkpt>
      <trkpt lat="43.38317" lon="-0.67312">
        <ele>124.147339</ele>
        <time>2012-06-24T08:13:22Z</time>
      </trkpt>
      <trkpt lat="43.38339" lon="-0.67287">
        <ele>124.628052</ele>
        <time>2012-06-24T08:13:35Z</time>
      </trkpt>
      <trkpt lat="43.38366" lon="-0.67259">
        <ele>124.628052</ele>
        <time>2012-06-24T08:13:48Z</time>
      </trkpt>
      <trkpt lat="43.38368" lon="-0.67256">
        <ele>124.628052</ele>
        <time>2012-06-24T08:13:49Z</time>
      </trkpt>
      <trkpt lat="43.38395" lon="-0.67235">
        <ele>124.147339</ele>
        <time>2012-06-24T08:14:00Z</time>
      </trkpt>
      <trkpt lat="43.38411" lon="-0.67226">
        <ele>124.147339</ele>
        <time>2012-06-24T08:14:06Z</time>
      </trkpt>
      <trkpt lat="43.38426" lon="-0.67221">
        <ele>127.031372</ele>
        <time>2012-06-24T08:14:12Z</time>
      </trkpt>
      <trkpt lat="43.38432" lon="-0.6723">
        <ele>127.992554</ele>
        <time>2012-06-24T08:14:16Z</time>
      </trkpt>
      <trkpt lat="43.38436" lon="-0.67247">
        <ele>125.108765</ele>
        <time>2012-06-24T08:14:19Z</time>
      </trkpt>
      <trkpt lat="43.38454" lon="-0.67293">
        <ele>125.108765</ele>
        <time>2012-06-24T08:14:29Z</time>
      </trkpt>
      <trkpt lat="43.38485" lon="-0.6736">
        <ele>124.628052</ele>
        <time>2012-06-24T08:14:41Z</time>
      </trkpt>
      <trkpt lat="43.3853" lon="-0.67457">
        <ele>124.628052</ele>
        <time>2012-06-24T08:14:56Z</time>
      </trkpt>
      <trkpt lat="43.38538" lon="-0.6749">
        <ele>124.628052</ele>
        <time>2012-06-24T08:15:01Z</time>
      </trkpt>
      <trkpt lat="43.38566" lon="-0.67578">
        <ele>124.147339</ele>
        <time>2012-06-24T08:15:14Z</time>
      </trkpt>
      <trkpt lat="43.38578" lon="-0.67601">
        <ele>124.147339</ele>
        <time>2012-06-24T08:15:18Z</time>
      </trkpt>
      <trkpt lat="43.38593" lon="-0.6762">
        <ele>124.147339</ele>
        <time>2012-06-24T08:15:22Z</time>
      </trkpt>
      <trkpt lat="43.38608" lon="-0.67643">
        <ele>125.589355</ele>
        <time>2012-06-24T08:15:27Z</time>
      </trkpt>
      <trkpt lat="43.38622" lon="-0.67667">
        <ele>125.108765</ele>
        <time>2012-06-24T08:15:32Z</time>
      </trkpt>
      <trkpt lat="43.38633" lon="-0.6768">
        <ele>125.108765</ele>
        <time>2012-06-24T08:15:35Z</time>
      </trkpt>
      <trkpt lat="43.38649" lon="-0.67695">
        <ele>124.147339</ele>
        <time>2012-06-24T08:15:39Z</time>
      </trkpt>
      <trkpt lat="43.38669" lon="-0.67714">
        <ele>122.705444</ele>
        <time>2012-06-24T08:15:43Z</time>
      </trkpt>
      <trkpt lat="43.38684" lon="-0.67738">
        <ele>121.744141</ele>
        <time>2012-06-24T08:15:46Z</time>
      </trkpt>
      <trkpt lat="43.38699" lon="-0.6777">
        <ele>120.782837</ele>
        <time>2012-06-24T08:15:50Z</time>
      </trkpt>
      <trkpt lat="43.3872" lon="-0.67789">
        <ele>120.302124</ele>
        <time>2012-06-24T08:15:54Z</time>
      </trkpt>
      <trkpt lat="43.38785" lon="-0.67847">
        <ele>119.34082</ele>
        <time>2012-06-24T08:16:07Z</time>
      </trkpt>
      <trkpt lat="43.38798" lon="-0.67866">
        <ele>119.34082</ele>
        <time>2012-06-24T08:16:10Z</time>
      </trkpt>
      <trkpt lat="43.38828" lon="-0.67893">
        <ele>118.860107</ele>
        <time>2012-06-24T08:16:16Z</time>
      </trkpt>
      <trkpt lat="43.38843" lon="-0.67914">
        <ele>119.821411</ele>
        <time>2012-06-24T08:16:20Z</time>
      </trkpt>
      <trkpt lat="43.3886" lon="-0.67929">
        <ele>119.34082</ele>
        <time>2012-06-24T08:16:24Z</time>
      </trkpt>
      <trkpt lat="43.38874" lon="-0.67942">
        <ele>119.821411</ele>
        <time>2012-06-24T08:16:27Z</time>
      </trkpt>
      <trkpt lat="43.38902" lon="-0.67961">
        <ele>119.821411</ele>
        <time>2012-06-24T08:16:33Z</time>
      </trkpt>
      <trkpt lat="43.38917" lon="-0.67968">
        <ele>119.821411</ele>
        <time>2012-06-24T08:16:36Z</time>
      </trkpt>
      <trkpt lat="43.38933" lon="-0.67972">
        <ele>119.34082</ele>
        <time>2012-06-24T08:16:39Z</time>
      </trkpt>
      <trkpt lat="43.38949" lon="-0.67974">
        <ele>118.379395</ele>
        <time>2012-06-24T08:16:42Z</time>
      </trkpt>
      <trkpt lat="43.39002" lon="-0.67985">
        <ele>118.379395</ele>
        <time>2012-06-24T08:16:51Z</time>
      </trkpt>
      <trkpt lat="43.39083" lon="-0.6803">
        <ele>117.418213</ele>
        <time>2012-06-24T08:17:05Z</time>
      </trkpt>
      <trkpt lat="43.39089" lon="-0.68033">
        <ele>117.898804</ele>
        <time>2012-06-24T08:17:06Z</time>
      </trkpt>
      <trkpt lat="43.39121" lon="-0.68056">
        <ele>117.418213</ele>
        <time>2012-06-24T08:17:13Z</time>
      </trkpt>
      <trkpt lat="43.39134" lon="-0.68075">
        <ele>117.418213</ele>
        <time>2012-06-24T08:17:17Z</time>
      </trkpt>
      <trkpt lat="43.3917" lon="-0.68132">
        <ele>116.456787</ele>
        <time>2012-06-24T08:17:26Z</time>
      </trkpt>
      <trkpt lat="43.39231" lon="-0.68205">
        <ele>114.53418</ele>
        <time>2012-06-24T08:17:38Z</time>
      </trkpt>
      <trkpt lat="43.39239" lon="-0.68224">
        <ele>115.495605</ele>
        <time>2012-06-24T08:17:41Z</time>
      </trkpt>
      <trkpt lat="43.39242" lon="-0.68236">
        <ele>115.976196</ele>
        <time>2012-06-24T08:17:43Z</time>
      </trkpt>
      <trkpt lat="43.39243" lon="-0.68242">
        <ele>116.9375</ele>
        <time>2012-06-24T08:17:44Z</time>
      </trkpt>
      <trkpt lat="43.39263" lon="-0.68269">
        <ele>118.860107</ele>
        <time>2012-06-24T08:17:52Z</time>
      </trkpt>
      <trkpt lat="43.39293" lon="-0.68286">
        <ele>120.782837</ele>
        <time>2012-06-24T08:18:05Z</time>
      </trkpt>
      <trkpt lat="43.39314" lon="-0.68319">
        <ele>124.147339</ele>
        <time>2012-06-24T08:18:18Z</time>
      </trkpt>
      <trkpt lat="43.39318" lon="-0.68358">
        <ele>127.031372</ele>
        <time>2012-06-24T08:18:30Z</time>
      </trkpt>
      <trkpt lat="43.39321" lon="-0.68418">
        <ele>129.915283</ele>
        <time>2012-06-24T08:18:48Z</time>
      </trkpt>
      <trkpt lat="43.39341" lon="-0.68441">
        <ele>133.279907</ele>
        <time>2012-06-24T08:18:59Z</time>
      </trkpt>
      <trkpt lat="43.39381" lon="-0.68451">
        <ele>136.16394</ele>
        <time>2012-06-24T08:19:18Z</time>
      </trkpt>
      <trkpt lat="43.39384" lon="-0.68452">
        <ele>136.16394</ele>
        <time>2012-06-24T08:19:20Z</time>
      </trkpt>
      <trkpt lat="43.39399" lon="-0.68449">
        <ele>136.16394</ele>
        <time>2012-06-24T08:19:28Z</time>
      </trkpt>
      <trkpt lat="43.39407" lon="-0.68438">
        <ele>135.683105</ele>
        <time>2012-06-24T08:19:31Z</time>
      </trkpt>
      <trkpt lat="43.39452" lon="-0.68426">
        <ele>133.279907</ele>
        <time>2012-06-24T08:19:40Z</time>
      </trkpt>
      <trkpt lat="43.39494" lon="-0.68446">
        <ele>132.318604</ele>
        <time>2012-06-24T08:19:49Z</time>
      </trkpt>
      <trkpt lat="43.39508" lon="-0.68451">
        <ele>132.318604</ele>
        <time>2012-06-24T08:19:54Z</time>
      </trkpt>
      <trkpt lat="43.39516" lon="-0.68455">
        <ele>130.876709</ele>
        <time>2012-06-24T08:19:57Z</time>
      </trkpt>
      <trkpt lat="43.39522" lon="-0.68471">
        <ele>127.511963</ele>
        <time>2012-06-24T08:20:01Z</time>
      </trkpt>
      <trkpt lat="43.39524" lon="-0.68483">
        <ele>126.069946</ele>
        <time>2012-06-24T08:20:04Z</time>
      </trkpt>
      <trkpt lat="43.39534" lon="-0.6849">
        <ele>122.705444</ele>
        <time>2012-06-24T08:20:08Z</time>
      </trkpt>
      <trkpt lat="43.39542" lon="-0.68493">
        <ele>121.744141</ele>
        <time>2012-06-24T08:20:10Z</time>
      </trkpt>
      <trkpt lat="43.39584" lon="-0.685">
        <ele>119.34082</ele>
        <time>2012-06-24T08:20:21Z</time>
      </trkpt>
      <trkpt lat="43.39618" lon="-0.6849">
        <ele>116.456787</ele>
        <time>2012-06-24T08:20:32Z</time>
      </trkpt>
      <trkpt lat="43.39648" lon="-0.68452">
        <ele>115.495605</ele>
        <time>2012-06-24T08:20:41Z</time>
      </trkpt>
      <trkpt lat="43.39662" lon="-0.68424">
        <ele>115.014893</ele>
        <time>2012-06-24T08:20:47Z</time>
      </trkpt>
      <trkpt lat="43.3968" lon="-0.68427">
        <ele>114.53418</ele>
        <time>2012-06-24T08:20:53Z</time>
      </trkpt>
      <trkpt lat="43.39688" lon="-0.68438">
        <ele>115.014893</ele>
        <time>2012-06-24T08:20:57Z</time>
      </trkpt>
      <trkpt lat="43.39698" lon="-0.68465">
        <ele>118.379395</ele>
        <time>2012-06-24T08:21:08Z</time>
      </trkpt>
      <trkpt lat="43.39714" lon="-0.68478">
        <ele>121.744141</ele>
        <time>2012-06-24T08:21:18Z</time>
      </trkpt>
      <trkpt lat="43.3974" lon="-0.68445">
        <ele>120.782837</ele>
        <time>2012-06-24T08:21:31Z</time>
      </trkpt>
      <trkpt lat="43.39766" lon="-0.68403">
        <ele>120.782837</ele>
        <time>2012-06-24T08:21:41Z</time>
      </trkpt>
      <trkpt lat="43.39805" lon="-0.68339">
        <ele>119.34082</ele>
        <time>2012-06-24T08:21:54Z</time>
      </trkpt>
      <trkpt lat="43.39837" lon="-0.68309">
        <ele>117.898804</ele>
        <time>2012-06-24T08:22:02Z</time>
      </trkpt>
      <trkpt lat="43.39858" lon="-0.68274">
        <ele>115.495605</ele>
        <time>2012-06-24T08:22:08Z</time>
      </trkpt>
      <trkpt lat="43.39885" lon="-0.6823">
        <ele>113.572998</ele>
        <time>2012-06-24T08:22:14Z</time>
      </trkpt>
      <trkpt lat="43.39894" lon="-0.68215">
        <ele>113.092285</ele>
        <time>2012-06-24T08:22:16Z</time>
      </trkpt>
      <trkpt lat="43.39904" lon="-0.68193">
        <ele>111.650269</ele>
        <time>2012-06-24T08:22:19Z</time>
      </trkpt>
      <trkpt lat="43.39935" lon="-0.68176">
        <ele>111.650269</ele>
        <time>2012-06-24T08:22:27Z</time>
      </trkpt>
      <trkpt lat="43.3994" lon="-0.68171">
        <ele>111.650269</ele>
        <time>2012-06-24T08:22:29Z</time>
      </trkpt>
      <trkpt lat="43.39995" lon="-0.68111">
        <ele>109.727661</ele>
        <time>2012-06-24T08:22:42Z</time>
      </trkpt>
      <trkpt lat="43.40061" lon="-0.6804">
        <ele>106.843628</ele>
        <time>2012-06-24T08:22:53Z</time>
      </trkpt>
      <trkpt lat="43.40116" lon="-0.67985">
        <ele>104.44043</ele>
        <time>2012-06-24T08:23:02Z</time>
      </trkpt>
      <trkpt lat="43.40187" lon="-0.67936">
        <ele>104.44043</ele>
        <time>2012-06-24T08:23:15Z</time>
      </trkpt>
      <trkpt lat="43.40268" lon="-0.67892">
        <ele>102.037109</ele>
        <time>2012-06-24T08:23:30Z</time>
      </trkpt>
      <trkpt lat="43.40316" lon="-0.67864">
        <ele>102.037109</ele>
        <time>2012-06-24T08:23:39Z</time>
      </trkpt>
      <trkpt lat="43.40343" lon="-0.67865">
        <ele>102.998291</ele>
        <time>2012-06-24T08:23:44Z</time>
      </trkpt>
      <trkpt lat="43.40365" lon="-0.67872">
        <ele>102.998291</ele>
        <time>2012-06-24T08:23:48Z</time>
      </trkpt>
      <trkpt lat="43.40394" lon="-0.67866">
        <ele>103.479004</ele>
        <time>2012-06-24T08:23:54Z</time>
      </trkpt>
      <trkpt lat="43.40395" lon="-0.67839">
        <ele>102.5177</ele>
        <time>2012-06-24T08:24:00Z</time>
      </trkpt>
      <trkpt lat="43.40388" lon="-0.67796">
        <ele>102.998291</ele>
        <time>2012-06-24T08:24:07Z</time>
      </trkpt>
      <trkpt lat="43.40394" lon="-0.67779">
        <ele>104.44043</ele>
        <time>2012-06-24T08:24:10Z</time>
      </trkpt>
      <trkpt lat="43.40404" lon="-0.67761">
        <ele>104.921021</ele>
        <time>2012-06-24T08:24:14Z</time>
      </trkpt>
      <trkpt lat="43.40451" lon="-0.67706">
        <ele>106.843628</ele>
        <time>2012-06-24T08:24:30Z</time>
      </trkpt>
      <trkpt lat="43.40477" lon="-0.6765">
        <ele>109.727661</ele>
        <time>2012-06-24T08:24:46Z</time>
      </trkpt>
      <trkpt lat="43.40498" lon="-0.67601">
        <ele>113.092285</ele>
        <time>2012-06-24T08:25:02Z</time>
      </trkpt>
      <trkpt lat="43.40496" lon="-0.6754">
        <ele>113.572998</ele>
        <time>2012-06-24T08:25:16Z</time>
      </trkpt>
      <trkpt lat="43.40485" lon="-0.67495">
        <ele>113.092285</ele>
        <time>2012-06-24T08:25:25Z</time>
      </trkpt>
      <trkpt lat="43.40434" lon="-0.674">
        <ele>110.688843</ele>
        <time>2012-06-24T08:25:41Z</time>
      </trkpt>
      <trkpt lat="43.40428" lon="-0.67377">
        <ele>110.688843</ele>
        <time>2012-06-24T08:25:44Z</time>
      </trkpt>
      <trkpt lat="43.40411" lon="-0.67359">
        <ele>110.208252</ele>
        <time>2012-06-24T08:25:48Z</time>
      </trkpt>
      <trkpt lat="43.40381" lon="-0.6734">
        <ele>111.650269</ele>
        <time>2012-06-24T08:25:59Z</time>
      </trkpt>
      <trkpt lat="43.40358" lon="-0.67316">
        <ele>115.014893</ele>
        <time>2012-06-24T08:26:11Z</time>
      </trkpt>
      <trkpt lat="43.4034" lon="-0.67282">
        <ele>117.898804</ele>
        <time>2012-06-24T08:26:26Z</time>
      </trkpt>
      <trkpt lat="43.40338" lon="-0.6728">
        <ele>118.379395</ele>
        <time>2012-06-24T08:26:27Z</time>
      </trkpt>
      <trkpt lat="43.40325" lon="-0.67256">
        <ele>121.744141</ele>
        <time>2012-06-24T08:26:42Z</time>
      </trkpt>
      <trkpt lat="43.40324" lon="-0.6725">
        <ele>122.224731</ele>
        <time>2012-06-24T08:26:45Z</time>
      </trkpt>
      <trkpt lat="43.40325" lon="-0.67228">
        <ele>125.589355</ele>
        <time>2012-06-24T08:26:55Z</time>
      </trkpt>
      <trkpt lat="43.40338" lon="-0.67201">
        <ele>129.434692</ele>
        <time>2012-06-24T08:27:11Z</time>
      </trkpt>
      <trkpt lat="43.40352" lon="-0.67174">
        <ele>129.915283</ele>
        <time>2012-06-24T08:27:27Z</time>
      </trkpt>
      <trkpt lat="43.40354" lon="-0.6717">
        <ele>131.3573</ele>
        <time>2012-06-24T08:27:30Z</time>
      </trkpt>
      <trkpt lat="43.40357" lon="-0.67155">
        <ele>134.241211</ele>
        <time>2012-06-24T08:27:38Z</time>
      </trkpt>
      <trkpt lat="43.40345" lon="-0.6712">
        <ele>135.683105</ele>
        <time>2012-06-24T08:27:55Z</time>
      </trkpt>
      <trkpt lat="43.40323" lon="-0.67092">
        <ele>139.047852</ele>
        <time>2012-06-24T08:28:12Z</time>
      </trkpt>
      <trkpt lat="43.40306" lon="-0.67055">
        <ele>141.931763</ele>
        <time>2012-06-24T08:28:30Z</time>
      </trkpt>
      <trkpt lat="43.40298" lon="-0.67019">
        <ele>145.296387</ele>
        <time>2012-06-24T08:28:48Z</time>
      </trkpt>
      <trkpt lat="43.40293" lon="-0.66997">
        <ele>148.18042</ele>
        <time>2012-06-24T08:29:00Z</time>
      </trkpt>
      <trkpt lat="43.40287" lon="-0.66971">
        <ele>151.544922</ele>
        <time>2012-06-24T08:29:14Z</time>
      </trkpt>
      <trkpt lat="43.40288" lon="-0.66961">
        <ele>152.986938</ele>
        <time>2012-06-24T08:29:19Z</time>
      </trkpt>
      <trkpt lat="43.40288" lon="-0.6694">
        <ele>156.351562</ele>
        <time>2012-06-24T08:29:32Z</time>
      </trkpt>
      <trkpt lat="43.40288" lon="-0.66939">
        <ele>155.870972</ele>
        <time>2012-06-24T08:29:33Z</time>
      </trkpt>
      <trkpt lat="43.40294" lon="-0.66917">
        <ele>159.235474</ele>
        <time>2012-06-24T08:29:46Z</time>
      </trkpt>
      <trkpt lat="43.40297" lon="-0.6688">
        <ele>162.119507</ele>
        <time>2012-06-24T08:30:06Z</time>
      </trkpt>
      <trkpt lat="43.40301" lon="-0.66852">
        <ele>165.964722</ele>
        <time>2012-06-24T08:30:21Z</time>
      </trkpt>
      <trkpt lat="43.40303" lon="-0.66845">
        <ele>165.964722</ele>
        <time>2012-06-24T08:30:26Z</time>
      </trkpt>
      <trkpt lat="43.40307" lon="-0.66834">
        <ele>167.887329</ele>
        <time>2012-06-24T08:30:33Z</time>
      </trkpt>
      <trkpt lat="43.40306" lon="-0.66791">
        <ele>169.810059</ele>
        <time>2012-06-24T08:30:51Z</time>
      </trkpt>
      <trkpt lat="43.40298" lon="-0.66739">
        <ele>171.252075</ele>
        <time>2012-06-24T08:31:07Z</time>
      </trkpt>
      <trkpt lat="43.40284" lon="-0.66681">
        <ele>172.69397</ele>
        <time>2012-06-24T08:31:25Z</time>
      </trkpt>
      <trkpt lat="43.40278" lon="-0.66639">
        <ele>175.577881</ele>
        <time>2012-06-24T08:31:38Z</time>
      </trkpt>
      <trkpt lat="43.40277" lon="-0.66629">
        <ele>177.02002</ele>
        <time>2012-06-24T08:31:42Z</time>
      </trkpt>
      <trkpt lat="43.40279" lon="-0.66592">
        <ele>179.423218</ele>
        <time>2012-06-24T08:31:56Z</time>
      </trkpt>
      <trkpt lat="43.40282" lon="-0.66555">
        <ele>182.307129</ele>
        <time>2012-06-24T08:32:09Z</time>
      </trkpt>
      <trkpt lat="43.40285" lon="-0.66518">
        <ele>185.671753</ele>
        <time>2012-06-24T08:32:22Z</time>
      </trkpt>
      <trkpt lat="43.40286" lon="-0.66491">
        <ele>188.555786</ele>
        <time>2012-06-24T08:32:33Z</time>
      </trkpt>
      <trkpt lat="43.40288" lon="-0.66448">
        <ele>190.958984</ele>
        <time>2012-06-24T08:32:51Z</time>
      </trkpt>
      <trkpt lat="43.40286" lon="-0.66405">
        <ele>192.401123</ele>
        <time>2012-06-24T08:33:07Z</time>
      </trkpt>
      <trkpt lat="43.40241" lon="-0.66354">
        <ele>194.32373</ele>
        <time>2012-06-24T08:33:25Z</time>
      </trkpt>
      <trkpt lat="43.4018" lon="-0.66289">
        <ele>195.284912</ele>
        <time>2012-06-24T08:33:44Z</time>
      </trkpt>
      <trkpt lat="43.4013" lon="-0.66247">
        <ele>191.439575</ele>
        <time>2012-06-24T08:33:54Z</time>
      </trkpt>
      <trkpt lat="43.40118" lon="-0.66238">
        <ele>190.478394</ele>
        <time>2012-06-24T08:33:57Z</time>
      </trkpt>
      <trkpt lat="43.40114" lon="-0.66255">
        <ele>190.478394</ele>
        <time>2012-06-24T08:34:02Z</time>
      </trkpt>
      <trkpt lat="43.40131" lon="-0.66335">
        <ele>189.036377</ele>
        <time>2012-06-24T08:34:19Z</time>
      </trkpt>
      <trkpt lat="43.4014" lon="-0.66366">
        <ele>186.633179</ele>
        <time>2012-06-24T08:34:27Z</time>
      </trkpt>
      <trkpt lat="43.4014" lon="-0.66382">
        <ele>184.710571</ele>
        <time>2012-06-24T08:34:30Z</time>
      </trkpt>
      <trkpt lat="43.4014" lon="-0.66387">
        <ele>184.229858</ele>
        <time>2012-06-24T08:34:31Z</time>
      </trkpt>
      <trkpt lat="43.40139" lon="-0.66399">
        <ele>183.268433</ele>
        <time>2012-06-24T08:34:33Z</time>
      </trkpt>
      <trkpt lat="43.40138" lon="-0.66412">
        <ele>181.345825</ele>
        <time>2012-06-24T08:34:35Z</time>
      </trkpt>
      <trkpt lat="43.40135" lon="-0.6644">
        <ele>178.942627</ele>
        <time>2012-06-24T08:34:40Z</time>
      </trkpt>
      <trkpt lat="43.40139" lon="-0.66474">
        <ele>175.09729</ele>
        <time>2012-06-24T08:34:49Z</time>
      </trkpt>
      <trkpt lat="43.4014" lon="-0.66481">
        <ele>173.655273</ele>
        <time>2012-06-24T08:34:51Z</time>
      </trkpt>
      <trkpt lat="43.40142" lon="-0.66508">
        <ele>171.252075</ele>
        <time>2012-06-24T08:34:57Z</time>
      </trkpt>
      <trkpt lat="43.40126" lon="-0.66521">
        <ele>170.771362</ele>
        <time>2012-06-24T08:35:04Z</time>
      </trkpt>
      <trkpt lat="43.40101" lon="-0.66509">
        <ele>166.445312</ele>
        <time>2012-06-24T08:35:11Z</time>
      </trkpt>
      <trkpt lat="43.40092" lon="-0.66501">
        <ele>165.003418</ele>
        <time>2012-06-24T08:35:14Z</time>
      </trkpt>
      <trkpt lat="43.40088" lon="-0.66495">
        <ele>163.561523</ele>
        <time>2012-06-24T08:35:16Z</time>
      </trkpt>
      <trkpt lat="43.40059" lon="-0.66477">
        <ele>160.67749</ele>
        <time>2012-06-24T08:35:27Z</time>
      </trkpt>
      <trkpt lat="43.40048" lon="-0.66482">
        <ele>159.235474</ele>
        <time>2012-06-24T08:35:30Z</time>
      </trkpt>
      <trkpt lat="43.40026" lon="-0.66493">
        <ele>155.390259</ele>
        <time>2012-06-24T08:35:36Z</time>
      </trkpt>
      <trkpt lat="43.40014" lon="-0.66501">
        <ele>153.948364</ele>
        <time>2012-06-24T08:35:39Z</time>
      </trkpt>
      <trkpt lat="43.39996" lon="-0.66516">
        <ele>150.583618</ele>
        <time>2012-06-24T08:35:44Z</time>
      </trkpt>
      <trkpt lat="43.39972" lon="-0.66538">
        <ele>146.738403</ele>
        <time>2012-06-24T08:35:50Z</time>
      </trkpt>
      <trkpt lat="43.39969" lon="-0.66542">
        <ele>146.738403</ele>
        <time>2012-06-24T08:35:51Z</time>
      </trkpt>
      <trkpt lat="43.39949" lon="-0.66559">
        <ele>143.85437</ele>
        <time>2012-06-24T08:35:56Z</time>
      </trkpt>
      <trkpt lat="43.39944" lon="-0.66563">
        <ele>143.85437</ele>
        <time>2012-06-24T08:35:57Z</time>
      </trkpt>
      <trkpt lat="43.39913" lon="-0.66583">
        <ele>140.009155</ele>
        <time>2012-06-24T08:36:04Z</time>
      </trkpt>
      <trkpt lat="43.39896" lon="-0.66592">
        <ele>136.644653</ele>
        <time>2012-06-24T08:36:08Z</time>
      </trkpt>
      <trkpt lat="43.39893" lon="-0.66593">
        <ele>136.16394</ele>
        <time>2012-06-24T08:36:09Z</time>
      </trkpt>
      <trkpt lat="43.39871" lon="-0.66601">
        <ele>133.760498</ele>
        <time>2012-06-24T08:36:14Z</time>
      </trkpt>
      <trkpt lat="43.39847" lon="-0.66617">
        <ele>129.915283</ele>
        <time>2012-06-24T08:36:23Z</time>
      </trkpt>
      <trkpt lat="43.39842" lon="-0.66642">
        <ele>128.473389</ele>
        <time>2012-06-24T08:36:31Z</time>
      </trkpt>
      <trkpt lat="43.39832" lon="-0.66634">
        <ele>127.511963</ele>
        <time>2012-06-24T08:36:33Z</time>
      </trkpt>
      <trkpt lat="43.39816" lon="-0.66618">
        <ele>126.069946</ele>
        <time>2012-06-24T08:36:36Z</time>
      </trkpt>
      <trkpt lat="43.39787" lon="-0.66615">
        <ele>123.666748</ele>
        <time>2012-06-24T08:36:41Z</time>
      </trkpt>
      <trkpt lat="43.39768" lon="-0.66638">
        <ele>119.821411</ele>
        <time>2012-06-24T08:36:45Z</time>
      </trkpt>
      <trkpt lat="43.39752" lon="-0.6664">
        <ele>118.860107</ele>
        <time>2012-06-24T08:36:48Z</time>
      </trkpt>
      <trkpt lat="43.3974" lon="-0.66636">
        <ele>117.898804</ele>
        <time>2012-06-24T08:36:50Z</time>
      </trkpt>
      <trkpt lat="43.39712" lon="-0.66635">
        <ele>115.014893</ele>
        <time>2012-06-24T08:36:54Z</time>
      </trkpt>
      <trkpt lat="43.39697" lon="-0.66637">
        <ele>114.053589</ele>
        <time>2012-06-24T08:36:56Z</time>
      </trkpt>
      <trkpt lat="43.39661" lon="-0.66652">
        <ele>107.324341</ele>
        <time>2012-06-24T08:37:01Z</time>
      </trkpt>
      <trkpt lat="43.39642" lon="-0.66667">
        <ele>105.401733</ele>
        <time>2012-06-24T08:37:04Z</time>
      </trkpt>
      <trkpt lat="43.39619" lon="-0.667">
        <ele>105.401733</ele>
        <time>2012-06-24T08:37:09Z</time>
      </trkpt>
      <trkpt lat="43.39553" lon="-0.66769">
        <ele>106.363037</ele>
        <time>2012-06-24T08:37:25Z</time>
      </trkpt>
      <trkpt lat="43.39528" lon="-0.66796">
        <ele>108.285645</ele>
        <time>2012-06-24T08:37:33Z</time>
      </trkpt>
      <trkpt lat="43.3953" lon="-0.6681">
        <ele>108.766235</ele>
        <time>2012-06-24T08:37:37Z</time>
      </trkpt>
      <trkpt lat="43.39569" lon="-0.66901">
        <ele>110.208252</ele>
        <time>2012-06-24T08:37:55Z</time>
      </trkpt>
      <trkpt lat="43.39609" lon="-0.66994">
        <ele>113.572998</ele>
        <time>2012-06-24T08:38:13Z</time>
      </trkpt>
      <trkpt lat="43.39612" lon="-0.66999">
        <ele>113.092285</ele>
        <time>2012-06-24T08:38:14Z</time>
      </trkpt>
      <trkpt lat="43.39651" lon="-0.67065">
        <ele>115.014893</ele>
        <time>2012-06-24T08:38:32Z</time>
      </trkpt>
      <trkpt lat="43.39653" lon="-0.67068">
        <ele>115.495605</ele>
        <time>2012-06-24T08:38:33Z</time>
      </trkpt>
      <trkpt lat="43.39658" lon="-0.67093">
        <ele>119.34082</ele>
        <time>2012-06-24T08:38:41Z</time>
      </trkpt>
      <trkpt lat="43.39665" lon="-0.67148">
        <ele>120.782837</ele>
        <time>2012-06-24T08:38:59Z</time>
      </trkpt>
      <trkpt lat="43.39677" lon="-0.67174">
        <ele>119.821411</ele>
        <time>2012-06-24T08:39:04Z</time>
      </trkpt>
      <trkpt lat="43.39689" lon="-0.67212">
        <ele>116.456787</ele>
        <time>2012-06-24T08:39:08Z</time>
      </trkpt>
      <trkpt lat="43.39692" lon="-0.67223">
        <ele>115.495605</ele>
        <time>2012-06-24T08:39:09Z</time>
      </trkpt>
      <trkpt lat="43.3974" lon="-0.67269">
        <ele>115.014893</ele>
        <time>2012-06-24T08:39:16Z</time>
      </trkpt>
      <trkpt lat="43.39751" lon="-0.67274">
        <ele>115.976196</ele>
        <time>2012-06-24T08:39:18Z</time>
      </trkpt>
      <trkpt lat="43.3976" lon="-0.67284">
        <ele>117.418213</ele>
        <time>2012-06-24T08:39:21Z</time>
      </trkpt>
      <trkpt lat="43.39775" lon="-0.67304">
        <ele>120.782837</ele>
        <time>2012-06-24T08:39:28Z</time>
      </trkpt>
      <trkpt lat="43.39813" lon="-0.67345">
        <ele>123.186157</ele>
        <time>2012-06-24T08:39:45Z</time>
      </trkpt>
      <trkpt lat="43.3982" lon="-0.67352">
        <ele>122.705444</ele>
        <time>2012-06-24T08:39:47Z</time>
      </trkpt>
      <trkpt lat="43.39827" lon="-0.67359">
        <ele>121.744141</ele>
        <time>2012-06-24T08:39:49Z</time>
      </trkpt>
      <trkpt lat="43.39848" lon="-0.67382">
        <ele>122.705444</ele>
        <time>2012-06-24T08:39:55Z</time>
      </trkpt>
      <trkpt lat="43.39859" lon="-0.67394">
        <ele>121.744141</ele>
        <time>2012-06-24T08:39:58Z</time>
      </trkpt>
      <trkpt lat="43.39899" lon="-0.67437">
        <ele>120.782837</ele>
        <time>2012-06-24T08:40:09Z</time>
      </trkpt>
      <trkpt lat="43.39919" lon="-0.67478">
        <ele>117.418213</ele>
        <time>2012-06-24T08:40:14Z</time>
      </trkpt>
      <trkpt lat="43.39926" lon="-0.67516">
        <ele>115.014893</ele>
        <time>2012-06-24T08:40:17Z</time>
      </trkpt>
      <trkpt lat="43.39954" lon="-0.67542">
        <ele>116.456787</ele>
        <time>2012-06-24T08:40:22Z</time>
      </trkpt>
      <trkpt lat="43.39963" lon="-0.67548">
        <ele>117.418213</ele>
        <time>2012-06-24T08:40:24Z</time>
      </trkpt>
      <trkpt lat="43.39976" lon="-0.67561">
        <ele>119.34082</ele>
        <time>2012-06-24T08:40:29Z</time>
      </trkpt>
      <trkpt lat="43.39988" lon="-0.67587">
        <ele>122.705444</ele>
        <time>2012-06-24T08:40:37Z</time>
      </trkpt>
      <trkpt lat="43.40015" lon="-0.67658">
        <ele>123.186157</ele>
        <time>2012-06-24T08:40:52Z</time>
      </trkpt>
      <trkpt lat="43.40012" lon="-0.67686">
        <ele>122.705444</ele>
        <time>2012-06-24T08:40:58Z</time>
      </trkpt>
      <trkpt lat="43.4" lon="-0.67687">
        <ele>122.705444</ele>
        <time>2012-06-24T08:41:03Z</time>
      </trkpt>
      <trkpt lat="43.39964" lon="-0.67674">
        <ele>124.628052</ele>
        <time>2012-06-24T08:41:18Z</time>
      </trkpt>
      <trkpt lat="43.39933" lon="-0.67666">
        <ele>126.550659</ele>
        <time>2012-06-24T08:41:33Z</time>
      </trkpt>
      <trkpt lat="43.39899" lon="-0.67659">
        <ele>127.031372</ele>
        <time>2012-06-24T08:41:48Z</time>
      </trkpt>
      <trkpt lat="43.39875" lon="-0.67661">
        <ele>128.473389</ele>
        <time>2012-06-24T08:41:59Z</time>
      </trkpt>
      <trkpt lat="43.39841" lon="-0.67672">
        <ele>128.954102</ele>
        <time>2012-06-24T08:42:13Z</time>
      </trkpt>
      <trkpt lat="43.39822" lon="-0.67672">
        <ele>130.395996</ele>
        <time>2012-06-24T08:42:25Z</time>
      </trkpt>
      <trkpt lat="43.39812" lon="-0.67653">
        <ele>130.876709</ele>
        <time>2012-06-24T08:42:35Z</time>
      </trkpt>
      <trkpt lat="43.39788" lon="-0.67659">
        <ele>132.318604</ele>
        <time>2012-06-24T08:42:51Z</time>
      </trkpt>
      <trkpt lat="43.39765" lon="-0.67676">
        <ele>135.683105</ele>
        <time>2012-06-24T08:43:10Z</time>
      </trkpt>
      <trkpt lat="43.39744" lon="-0.67684">
        <ele>139.047852</ele>
        <time>2012-06-24T08:43:26Z</time>
      </trkpt>
      <trkpt lat="43.39718" lon="-0.67689">
        <ele>141.45105</ele>
        <time>2012-06-24T08:43:44Z</time>
      </trkpt>
      <trkpt lat="43.3969" lon="-0.67682">
        <ele>144.335205</ele>
        <time>2012-06-24T08:44:03Z</time>
      </trkpt>
      <trkpt lat="43.39669" lon="-0.67677">
        <ele>146.257812</ele>
        <time>2012-06-24T08:44:18Z</time>
      </trkpt>
      <trkpt lat="43.39659" lon="-0.67667">
        <ele>147.699707</ele>
        <time>2012-06-24T08:44:26Z</time>
      </trkpt>
      <trkpt lat="43.39655" lon="-0.67667">
        <ele>147.218994</ele>
        <time>2012-06-24T08:44:29Z</time>
      </trkpt>
      <trkpt lat="43.39652" lon="-0.67671">
        <ele>148.661011</ele>
        <time>2012-06-24T08:44:32Z</time>
      </trkpt>
      <trkpt lat="43.39642" lon="-0.67678">
        <ele>149.622314</ele>
        <time>2012-06-24T08:44:47Z</time>
      </trkpt>
      <trkpt lat="43.39626" lon="-0.67681">
        <ele>152.986938</ele>
        <time>2012-06-24T08:45:05Z</time>
      </trkpt>
      <trkpt lat="43.39624" lon="-0.6768">
        <ele>153.467651</ele>
        <time>2012-06-24T08:45:07Z</time>
      </trkpt>
      <trkpt lat="43.39611" lon="-0.67677">
        <ele>154.909546</ele>
        <time>2012-06-24T08:45:20Z</time>
      </trkpt>
      <trkpt lat="43.39601" lon="-0.67681">
        <ele>156.351562</ele>
        <time>2012-06-24T08:45:31Z</time>
      </trkpt>
      <trkpt lat="43.39583" lon="-0.67665">
        <ele>159.235474</ele>
        <time>2012-06-24T08:45:48Z</time>
      </trkpt>
      <trkpt lat="43.39565" lon="-0.67655">
        <ele>162.600098</ele>
        <time>2012-06-24T08:46:03Z</time>
      </trkpt>
      <trkpt lat="43.39564" lon="-0.67655">
        <ele>163.080811</ele>
        <time>2012-06-24T08:46:04Z</time>
      </trkpt>
      <trkpt lat="43.39555" lon="-0.67653">
        <ele>163.561523</ele>
        <time>2012-06-24T08:46:16Z</time>
      </trkpt>
      <trkpt lat="43.39532" lon="-0.67644">
        <ele>164.522705</ele>
        <time>2012-06-24T08:46:29Z</time>
      </trkpt>
      <trkpt lat="43.39513" lon="-0.67632">
        <ele>162.600098</ele>
        <time>2012-06-24T08:46:34Z</time>
      </trkpt>
      <trkpt lat="43.39473" lon="-0.67616">
        <ele>163.080811</ele>
        <time>2012-06-24T08:46:48Z</time>
      </trkpt>
      <trkpt lat="43.39432" lon="-0.67603">
        <ele>164.042114</ele>
        <time>2012-06-24T08:47:04Z</time>
      </trkpt>
      <trkpt lat="43.39419" lon="-0.67597">
        <ele>164.522705</ele>
        <time>2012-06-24T08:47:16Z</time>
      </trkpt>
      <trkpt lat="43.39409" lon="-0.67588">
        <ele>165.964722</ele>
        <time>2012-06-24T08:47:28Z</time>
      </trkpt>
      <trkpt lat="43.39399" lon="-0.67581">
        <ele>168.368042</ele>
        <time>2012-06-24T08:47:37Z</time>
      </trkpt>
      <trkpt lat="43.39386" lon="-0.67572">
        <ele>171.732666</ele>
        <time>2012-06-24T08:47:49Z</time>
      </trkpt>
      <trkpt lat="43.39375" lon="-0.67564">
        <ele>174.135864</ele>
        <time>2012-06-24T08:48:00Z</time>
      </trkpt>
      <trkpt lat="43.39361" lon="-0.67554">
        <ele>177.50061</ele>
        <time>2012-06-24T08:48:17Z</time>
      </trkpt>
      <trkpt lat="43.39354" lon="-0.67544">
        <ele>178.461914</ele>
        <time>2012-06-24T08:48:35Z</time>
      </trkpt>
      <trkpt lat="43.39333" lon="-0.67501">
        <ele>178.461914</ele>
        <time>2012-06-24T08:48:50Z</time>
      </trkpt>
      <trkpt lat="43.39329" lon="-0.67492">
        <ele>177.981201</ele>
        <time>2012-06-24T08:48:52Z</time>
      </trkpt>
      <trkpt lat="43.39292" lon="-0.67455">
        <ele>176.539307</ele>
        <time>2012-06-24T08:49:02Z</time>
      </trkpt>
      <trkpt lat="43.39253" lon="-0.67451">
        <ele>175.577881</ele>
        <time>2012-06-24T08:49:08Z</time>
      </trkpt>
      <trkpt lat="43.39238" lon="-0.67452">
        <ele>174.616577</ele>
        <time>2012-06-24T08:49:10Z</time>
      </trkpt>
      <trkpt lat="43.3919" lon="-0.67434">
        <ele>174.135864</ele>
        <time>2012-06-24T08:49:19Z</time>
      </trkpt>
      <trkpt lat="43.39181" lon="-0.67422">
        <ele>175.577881</ele>
        <time>2012-06-24T08:49:22Z</time>
      </trkpt>
      <trkpt lat="43.39179" lon="-0.67417">
        <ele>175.09729</ele>
        <time>2012-06-24T08:49:23Z</time>
      </trkpt>
      <trkpt lat="43.39145" lon="-0.6739">
        <ele>177.02002</ele>
        <time>2012-06-24T08:49:35Z</time>
      </trkpt>
      <trkpt lat="43.39122" lon="-0.67431">
        <ele>179.903809</ele>
        <time>2012-06-24T08:49:46Z</time>
      </trkpt>
      <trkpt lat="43.39121" lon="-0.67433">
        <ele>180.384521</ele>
        <time>2012-06-24T08:49:47Z</time>
      </trkpt>
      <trkpt lat="43.391" lon="-0.67472">
        <ele>183.749023</ele>
        <time>2012-06-24T08:50:05Z</time>
      </trkpt>
      <trkpt lat="43.39073" lon="-0.67484">
        <ele>186.633179</ele>
        <time>2012-06-24T08:50:22Z</time>
      </trkpt>
      <trkpt lat="43.3907" lon="-0.67437">
        <ele>189.516968</ele>
        <time>2012-06-24T08:50:39Z</time>
      </trkpt>
      <trkpt lat="43.3906" lon="-0.67399">
        <ele>193.362305</ele>
        <time>2012-06-24T08:50:54Z</time>
      </trkpt>
      <trkpt lat="43.39059" lon="-0.67397">
        <ele>193.362305</ele>
        <time>2012-06-24T08:50:55Z</time>
      </trkpt>
      <trkpt lat="43.39042" lon="-0.67365">
        <ele>197.20752</ele>
        <time>2012-06-24T08:51:10Z</time>
      </trkpt>
      <trkpt lat="43.39019" lon="-0.67307">
        <ele>198.168945</ele>
        <time>2012-06-24T08:51:31Z</time>
      </trkpt>
      <trkpt lat="43.39005" lon="-0.67259">
        <ele>200.091675</ele>
        <time>2012-06-24T08:51:45Z</time>
      </trkpt>
      <trkpt lat="43.38999" lon="-0.67241">
        <ele>202.975464</ele>
        <time>2012-06-24T08:51:51Z</time>
      </trkpt>
      <trkpt lat="43.38966" lon="-0.67202">
        <ele>204.41748</ele>
        <time>2012-06-24T08:52:10Z</time>
      </trkpt>
      <trkpt lat="43.38921" lon="-0.67179">
        <ele>204.898071</ele>
        <time>2012-06-24T08:52:26Z</time>
      </trkpt>
      <trkpt lat="43.38875" lon="-0.67154">
        <ele>203.93689</ele>
        <time>2012-06-24T08:52:40Z</time>
      </trkpt>
      <trkpt lat="43.38848" lon="-0.67128">
        <ele>201.052856</ele>
        <time>2012-06-24T08:52:46Z</time>
      </trkpt>
      <trkpt lat="43.38824" lon="-0.67091">
        <ele>197.688232</ele>
        <time>2012-06-24T08:52:52Z</time>
      </trkpt>
      <trkpt lat="43.38822" lon="-0.67086">
        <ele>198.168945</ele>
        <time>2012-06-24T08:52:53Z</time>
      </trkpt>
      <trkpt lat="43.38812" lon="-0.67061">
        <ele>197.688232</ele>
        <time>2012-06-24T08:53:01Z</time>
      </trkpt>
      <trkpt lat="43.38822" lon="-0.67045">
        <ele>194.32373</ele>
        <time>2012-06-24T08:53:10Z</time>
      </trkpt>
      <trkpt lat="43.38826" lon="-0.6703">
        <ele>191.920288</ele>
        <time>2012-06-24T08:53:13Z</time>
      </trkpt>
      <trkpt lat="43.38828" lon="-0.67007">
        <ele>190.958984</ele>
        <time>2012-06-24T08:53:15Z</time>
      </trkpt>
      <trkpt lat="43.38833" lon="-0.66977">
        <ele>189.997681</ele>
        <time>2012-06-24T08:53:18Z</time>
      </trkpt>
      <trkpt lat="43.38836" lon="-0.66956">
        <ele>190.478394</ele>
        <time>2012-06-24T08:53:20Z</time>
      </trkpt>
      <trkpt lat="43.38847" lon="-0.66912">
        <ele>186.633179</ele>
        <time>2012-06-24T08:53:25Z</time>
      </trkpt>
      <trkpt lat="43.38852" lon="-0.66881">
        <ele>183.749023</ele>
        <time>2012-06-24T08:53:29Z</time>
      </trkpt>
      <trkpt lat="43.38847" lon="-0.66859">
        <ele>181.826416</ele>
        <time>2012-06-24T08:53:32Z</time>
      </trkpt>
      <trkpt lat="43.38831" lon="-0.66827">
        <ele>178.461914</ele>
        <time>2012-06-24T08:53:37Z</time>
      </trkpt>
      <trkpt lat="43.38827" lon="-0.66817">
        <ele>177.02002</ele>
        <time>2012-06-24T08:53:39Z</time>
      </trkpt>
      <trkpt lat="43.38817" lon="-0.66798">
        <ele>173.655273</ele>
        <time>2012-06-24T08:53:43Z</time>
      </trkpt>
      <trkpt lat="43.38814" lon="-0.66794">
        <ele>173.655273</ele>
        <time>2012-06-24T08:53:44Z</time>
      </trkpt>
      <trkpt lat="43.38808" lon="-0.66785">
        <ele>169.810059</ele>
        <time>2012-06-24T08:53:50Z</time>
      </trkpt>
      <trkpt lat="43.38803" lon="-0.66776">
        <ele>170.771362</ele>
        <time>2012-06-24T08:54:02Z</time>
      </trkpt>
      <trkpt lat="43.38798" lon="-0.66771">
        <ele>169.329468</ele>
        <time>2012-06-24T08:54:12Z</time>
      </trkpt>
      <trkpt lat="43.38795" lon="-0.66764">
        <ele>170.290649</ele>
        <time>2012-06-24T08:54:23Z</time>
      </trkpt>
      <trkpt lat="43.38799" lon="-0.66747">
        <ele>169.329468</ele>
        <time>2012-06-24T08:54:30Z</time>
      </trkpt>
      <trkpt lat="43.38817" lon="-0.66707">
        <ele>165.964722</ele>
        <time>2012-06-24T08:54:40Z</time>
      </trkpt>
      <trkpt lat="43.3882" lon="-0.66699">
        <ele>165.964722</ele>
        <time>2012-06-24T08:54:42Z</time>
      </trkpt>
      <trkpt lat="43.38826" lon="-0.66653">
        <ele>165.964722</ele>
        <time>2012-06-24T08:54:52Z</time>
      </trkpt>
      <trkpt lat="43.38827" lon="-0.66577">
        <ele>163.561523</ele>
        <time>2012-06-24T08:55:07Z</time>
      </trkpt>
      <trkpt lat="43.3883" lon="-0.66551">
        <ele>162.600098</ele>
        <time>2012-06-24T08:55:12Z</time>
      </trkpt>
      <trkpt lat="43.38836" lon="-0.66534">
        <ele>161.638916</ele>
        <time>2012-06-24T08:55:15Z</time>
      </trkpt>
      <trkpt lat="43.38844" lon="-0.66486">
        <ele>159.235474</ele>
        <time>2012-06-24T08:55:23Z</time>
      </trkpt>
      <trkpt lat="43.38845" lon="-0.66446">
        <ele>156.832153</ele>
        <time>2012-06-24T08:55:29Z</time>
      </trkpt>
      <trkpt lat="43.38842" lon="-0.66415">
        <ele>154.909546</ele>
        <time>2012-06-24T08:55:34Z</time>
      </trkpt>
      <trkpt lat="43.3885" lon="-0.66391">
        <ele>153.948364</ele>
        <time>2012-06-24T08:55:38Z</time>
      </trkpt>
      <trkpt lat="43.38862" lon="-0.6635">
        <ele>150.583618</ele>
        <time>2012-06-24T08:55:44Z</time>
      </trkpt>
      <trkpt lat="43.38862" lon="-0.66329">
        <ele>148.18042</ele>
        <time>2012-06-24T08:55:48Z</time>
      </trkpt>
      <trkpt lat="43.38887" lon="-0.66303">
        <ele>144.815796</ele>
        <time>2012-06-24T08:55:54Z</time>
      </trkpt>
      <trkpt lat="43.38892" lon="-0.66296">
        <ele>144.815796</ele>
        <time>2012-06-24T08:55:55Z</time>
      </trkpt>
      <trkpt lat="43.38897" lon="-0.66289">
        <ele>143.373657</ele>
        <time>2012-06-24T08:55:56Z</time>
      </trkpt>
      <trkpt lat="43.38926" lon="-0.66247">
        <ele>138.567261</ele>
        <time>2012-06-24T08:56:02Z</time>
      </trkpt>
      <trkpt lat="43.38946" lon="-0.6622">
        <ele>134.241211</ele>
        <time>2012-06-24T08:56:06Z</time>
      </trkpt>
      <trkpt lat="43.38967" lon="-0.66191">
        <ele>129.915283</ele>
        <time>2012-06-24T08:56:10Z</time>
      </trkpt>
      <trkpt lat="43.38971" lon="-0.66184">
        <ele>130.395996</ele>
        <time>2012-06-24T08:56:11Z</time>
      </trkpt>
      <trkpt lat="43.38982" lon="-0.66149">
        <ele>127.511963</ele>
        <time>2012-06-24T08:56:15Z</time>
      </trkpt>
      <trkpt lat="43.3898" lon="-0.6613">
        <ele>127.031372</ele>
        <time>2012-06-24T08:56:17Z</time>
      </trkpt>
      <trkpt lat="43.38984" lon="-0.6609">
        <ele>124.147339</ele>
        <time>2012-06-24T08:56:22Z</time>
      </trkpt>
      <trkpt lat="43.38988" lon="-0.66084">
        <ele>122.224731</ele>
        <time>2012-06-24T08:56:23Z</time>
      </trkpt>
      <trkpt lat="43.39018" lon="-0.66046">
        <ele>119.34082</ele>
        <time>2012-06-24T08:56:29Z</time>
      </trkpt>
      <trkpt lat="43.39023" lon="-0.6604">
        <ele>118.379395</ele>
        <time>2012-06-24T08:56:30Z</time>
      </trkpt>
      <trkpt lat="43.39035" lon="-0.66031">
        <ele>117.418213</ele>
        <time>2012-06-24T08:56:32Z</time>
      </trkpt>
      <trkpt lat="43.39049" lon="-0.66024">
        <ele>116.456787</ele>
        <time>2012-06-24T08:56:34Z</time>
      </trkpt>
      <trkpt lat="43.39085" lon="-0.66021">
        <ele>114.53418</ele>
        <time>2012-06-24T08:56:40Z</time>
      </trkpt>
      <trkpt lat="43.39104" lon="-0.66023">
        <ele>112.611572</ele>
        <time>2012-06-24T08:56:44Z</time>
      </trkpt>
      <trkpt lat="43.39106" lon="-0.66017">
        <ele>111.650269</ele>
        <time>2012-06-24T08:56:46Z</time>
      </trkpt>
      <trkpt lat="43.39101" lon="-0.6601">
        <ele>112.130981</ele>
        <time>2012-06-24T08:56:48Z</time>
      </trkpt>
      <trkpt lat="43.39074" lon="-0.65987">
        <ele>111.650269</ele>
        <time>2012-06-24T08:56:56Z</time>
      </trkpt>
      <trkpt lat="43.39011" lon="-0.6597">
        <ele>114.53418</ele>
        <time>2012-06-24T08:57:11Z</time>
      </trkpt>
      <trkpt lat="43.38996" lon="-0.65959">
        <ele>114.53418</ele>
        <time>2012-06-24T08:57:15Z</time>
      </trkpt>
      <trkpt lat="43.38982" lon="-0.65923">
        <ele>114.53418</ele>
        <time>2012-06-24T08:57:21Z</time>
      </trkpt>
      <trkpt lat="43.3897" lon="-0.65828">
        <ele>113.092285</ele>
        <time>2012-06-24T08:57:35Z</time>
      </trkpt>
      <trkpt lat="43.38964" lon="-0.6579">
        <ele>113.572998</ele>
        <time>2012-06-24T08:57:41Z</time>
      </trkpt>
      <trkpt lat="43.38966" lon="-0.65754">
        <ele>113.092285</ele>
        <time>2012-06-24T08:57:47Z</time>
      </trkpt>
      <trkpt lat="43.38982" lon="-0.65705">
        <ele>111.650269</ele>
        <time>2012-06-24T08:57:54Z</time>
      </trkpt>
      <trkpt lat="43.38999" lon="-0.6568">
        <ele>110.688843</ele>
        <time>2012-06-24T08:57:58Z</time>
      </trkpt>
      <trkpt lat="43.39022" lon="-0.65631">
        <ele>110.688843</ele>
        <time>2012-06-24T08:58:06Z</time>
      </trkpt>
      <trkpt lat="43.39012" lon="-0.65585">
        <ele>111.169556</ele>
        <time>2012-06-24T08:58:13Z</time>
      </trkpt>
      <trkpt lat="43.3901" lon="-0.65547">
        <ele>110.688843</ele>
        <time>2012-06-24T08:58:18Z</time>
      </trkpt>
      <trkpt lat="43.39008" lon="-0.65535">
        <ele>110.208252</ele>
        <time>2012-06-24T08:58:20Z</time>
      </trkpt>
      <trkpt lat="43.39012" lon="-0.65512">
        <ele>110.208252</ele>
        <time>2012-06-24T08:58:24Z</time>
      </trkpt>
      <trkpt lat="43.39015" lon="-0.65475">
        <ele>110.208252</ele>
        <time>2012-06-24T08:58:32Z</time>
      </trkpt>
      <trkpt lat="43.38995" lon="-0.65478">
        <ele>109.727661</ele>
        <time>2012-06-24T08:58:40Z</time>
      </trkpt>
      <trkpt lat="43.38993" lon="-0.65476">
        <ele>110.208252</ele>
        <time>2012-06-24T08:58:42Z</time>
      </trkpt>
      <trkpt lat="43.38989" lon="-0.65466">
        <ele>110.208252</ele>
        <time>2012-06-24T08:58:57Z</time>
      </trkpt>
      <trkpt lat="43.38993" lon="-0.65458">
        <ele>109.727661</ele>
        <time>2012-06-24T08:59:10Z</time>
      </trkpt>
      <trkpt lat="43.38994" lon="-0.6546">
        <ele>109.727661</ele>
        <time>2012-06-24T08:59:25Z</time>
      </trkpt>
      <trkpt lat="43.38993" lon="-0.65462">
        <ele>109.246948</ele>
        <time>2012-06-24T08:59:46Z</time>
      </trkpt>
      <trkpt lat="43.38991" lon="-0.65465">
        <ele>109.246948</ele>
        <time>2012-06-24T09:00:00Z</time>
      </trkpt>
      <trkpt lat="43.3899" lon="-0.65463">
        <ele>110.208252</ele>
        <time>2012-06-24T09:00:15Z</time>
      </trkpt>
      <trkpt lat="43.38994" lon="-0.65461">
        <ele>110.208252</ele>
        <time>2012-06-24T09:00:34Z</time>
      </trkpt>
      <trkpt lat="43.38997" lon="-0.65458">
        <ele>109.246948</ele>
        <time>2012-06-24T09:00:52Z</time>
      </trkpt>
      <trkpt lat="43.38998" lon="-0.65456">
        <ele>108.766235</ele>
        <time>2012-06-24T09:01:06Z</time>
      </trkpt>
      <trkpt lat="43.38999" lon="-0.65457">
        <ele>109.727661</ele>
        <time>2012-06-24T09:01:55Z</time>
      </trkpt>
      <trkpt lat="43.39" lon="-0.65454">
        <ele>109.727661</ele>
        <time>2012-06-24T09:02:07Z</time>
      </trkpt>
      <trkpt lat="43.39002" lon="-0.65451">
        <ele>109.727661</ele>
        <time>2012-06-24T09:02:10Z</time>
      </trkpt>
      <trkpt lat="43.39007" lon="-0.6545">
        <ele>109.727661</ele>
        <time>2012-06-24T09:02:15Z</time>
      </trkpt>
      <trkpt lat="43.39011" lon="-0.6545">
        <ele>109.246948</ele>
        <time>2012-06-24T09:02:37Z</time>
      </trkpt>
      <trkpt lat="43.39006" lon="-0.65448">
        <ele>109.727661</ele>
        <time>2012-06-24T09:02:51Z</time>
      </trkpt>
      <trkpt lat="43.39002" lon="-0.65451">
        <ele>109.727661</ele>
        <time>2012-06-24T09:02:57Z</time>
      </trkpt>
      <trkpt lat="43.39" lon="-0.65456">
        <ele>109.246948</ele>
        <time>2012-06-24T09:03:11Z</time>
      </trkpt>
      <trkpt lat="43.39" lon="-0.65452">
        <ele>109.727661</ele>
        <time>2012-06-24T09:03:34Z</time>
      </trkpt>
      <trkpt lat="43.39021" lon="-0.65423">
        <ele>111.169556</ele>
        <time>2012-06-24T09:03:48Z</time>
      </trkpt>
      <trkpt lat="43.39043" lon="-0.65397">
        <ele>112.130981</ele>
        <time>2012-06-24T09:04:04Z</time>
      </trkpt>
      <trkpt lat="43.39042" lon="-0.65358">
        <ele>114.053589</ele>
        <time>2012-06-24T09:04:17Z</time>
      </trkpt>
      <trkpt lat="43.39031" lon="-0.65325">
        <ele>117.418213</ele>
        <time>2012-06-24T09:04:30Z</time>
      </trkpt>
      <trkpt lat="43.39012" lon="-0.65273">
        <ele>119.34082</ele>
        <time>2012-06-24T09:04:50Z</time>
      </trkpt>
      <trkpt lat="43.39011" lon="-0.65247">
        <ele>122.224731</ele>
        <time>2012-06-24T09:05:00Z</time>
      </trkpt>
      <trkpt lat="43.39014" lon="-0.65222">
        <ele>125.589355</ele>
        <time>2012-06-24T09:05:12Z</time>
      </trkpt>
      <trkpt lat="43.39014" lon="-0.65194">
        <ele>128.954102</ele>
        <time>2012-06-24T09:05:28Z</time>
      </trkpt>
      <trkpt lat="43.39011" lon="-0.65175">
        <ele>131.837891</ele>
        <time>2012-06-24T09:05:40Z</time>
      </trkpt>
      <trkpt lat="43.3901" lon="-0.65157">
        <ele>134.241211</ele>
        <time>2012-06-24T09:05:51Z</time>
      </trkpt>
      <trkpt lat="43.39007" lon="-0.65138">
        <ele>134.721924</ele>
        <time>2012-06-24T09:06:02Z</time>
      </trkpt>
      <trkpt lat="43.38997" lon="-0.65118">
        <ele>139.528442</ele>
        <time>2012-06-24T09:06:16Z</time>
      </trkpt>
      <trkpt lat="43.38991" lon="-0.65106">
        <ele>140.970459</ele>
        <time>2012-06-24T09:06:25Z</time>
      </trkpt>
      <trkpt lat="43.3898" lon="-0.65083">
        <ele>143.85437</ele>
        <time>2012-06-24T09:06:42Z</time>
      </trkpt>
      <trkpt lat="43.38966" lon="-0.65061">
        <ele>147.218994</ele>
        <time>2012-06-24T09:06:59Z</time>
      </trkpt>
      <trkpt lat="43.38953" lon="-0.65039">
        <ele>151.064209</ele>
        <time>2012-06-24T09:07:14Z</time>
      </trkpt>
      <trkpt lat="43.38952" lon="-0.65038">
        <ele>151.544922</ele>
        <time>2012-06-24T09:07:15Z</time>
      </trkpt>
      <trkpt lat="43.38932" lon="-0.65007">
        <ele>152.506348</ele>
        <time>2012-06-24T09:07:35Z</time>
      </trkpt>
      <trkpt lat="43.3892" lon="-0.64986">
        <ele>155.390259</ele>
        <time>2012-06-24T09:07:46Z</time>
      </trkpt>
      <trkpt lat="43.38905" lon="-0.64959">
        <ele>158.754761</ele>
        <time>2012-06-24T09:07:58Z</time>
      </trkpt>
      <trkpt lat="43.38891" lon="-0.64929">
        <ele>160.67749</ele>
        <time>2012-06-24T09:08:10Z</time>
      </trkpt>
      <trkpt lat="43.38902" lon="-0.64897">
        <ele>162.119507</ele>
        <time>2012-06-24T09:08:23Z</time>
      </trkpt>
      <trkpt lat="43.38903" lon="-0.6488">
        <ele>162.119507</ele>
        <time>2012-06-24T09:08:27Z</time>
      </trkpt>
      <trkpt lat="43.38885" lon="-0.64829">
        <ele>159.716187</ele>
        <time>2012-06-24T09:08:35Z</time>
      </trkpt>
      <trkpt lat="43.38838" lon="-0.64779">
        <ele>156.832153</ele>
        <time>2012-06-24T09:08:43Z</time>
      </trkpt>
      <trkpt lat="43.38813" lon="-0.64734">
        <ele>154.428955</ele>
        <time>2012-06-24T09:08:48Z</time>
      </trkpt>
      <trkpt lat="43.38806" lon="-0.64718">
        <ele>151.544922</ele>
        <time>2012-06-24T09:08:50Z</time>
      </trkpt>
      <trkpt lat="43.38802" lon="-0.6471">
        <ele>151.544922</ele>
        <time>2012-06-24T09:08:51Z</time>
      </trkpt>
      <trkpt lat="43.38796" lon="-0.64691">
        <ele>149.622314</ele>
        <time>2012-06-24T09:08:54Z</time>
      </trkpt>
      <trkpt lat="43.38805" lon="-0.64684">
        <ele>149.141602</ele>
        <time>2012-06-24T09:08:58Z</time>
      </trkpt>
      <trkpt lat="43.38843" lon="-0.64713">
        <ele>146.257812</ele>
        <time>2012-06-24T09:09:05Z</time>
      </trkpt>
      <trkpt lat="43.3885" lon="-0.64719">
        <ele>145.7771</ele>
        <time>2012-06-24T09:09:06Z</time>
      </trkpt>
      <trkpt lat="43.38885" lon="-0.6474">
        <ele>144.815796</ele>
        <time>2012-06-24T09:09:11Z</time>
      </trkpt>
      <trkpt lat="43.38914" lon="-0.64762">
        <ele>145.7771</ele>
        <time>2012-06-24T09:09:16Z</time>
      </trkpt>
      <trkpt lat="43.38962" lon="-0.64784">
        <ele>148.18042</ele>
        <time>2012-06-24T09:09:25Z</time>
      </trkpt>
      <trkpt lat="43.38976" lon="-0.64791">
        <ele>148.18042</ele>
        <time>2012-06-24T09:09:28Z</time>
      </trkpt>
      <trkpt lat="43.38998" lon="-0.64802">
        <ele>148.661011</ele>
        <time>2012-06-24T09:09:33Z</time>
      </trkpt>
      <trkpt lat="43.39037" lon="-0.64802">
        <ele>149.141602</ele>
        <time>2012-06-24T09:09:44Z</time>
      </trkpt>
      <trkpt lat="43.39075" lon="-0.6475">
        <ele>152.986938</ele>
        <time>2012-06-24T09:09:59Z</time>
      </trkpt>
      <trkpt lat="43.39078" lon="-0.64748">
        <ele>152.986938</ele>
        <time>2012-06-24T09:10:00Z</time>
      </trkpt>
      <trkpt lat="43.39105" lon="-0.64718">
        <ele>154.428955</ele>
        <time>2012-06-24T09:10:10Z</time>
      </trkpt>
      <trkpt lat="43.39155" lon="-0.6472">
        <ele>153.948364</ele>
        <time>2012-06-24T09:10:23Z</time>
      </trkpt>
      <trkpt lat="43.39179" lon="-0.64743">
        <ele>153.948364</ele>
        <time>2012-06-24T09:10:30Z</time>
      </trkpt>
      <trkpt lat="43.39195" lon="-0.64774">
        <ele>154.909546</ele>
        <time>2012-06-24T09:10:36Z</time>
      </trkpt>
      <trkpt lat="43.39229" lon="-0.64893">
        <ele>153.467651</ele>
        <time>2012-06-24T09:10:55Z</time>
      </trkpt>
      <trkpt lat="43.39245" lon="-0.64945">
        <ele>151.064209</ele>
        <time>2012-06-24T09:11:03Z</time>
      </trkpt>
      <trkpt lat="43.39255" lon="-0.64931">
        <ele>149.141602</ele>
        <time>2012-06-24T09:11:06Z</time>
      </trkpt>
      <trkpt lat="43.39277" lon="-0.64853">
        <ele>144.335205</ele>
        <time>2012-06-24T09:11:13Z</time>
      </trkpt>
      <trkpt lat="43.39278" lon="-0.64817">
        <ele>142.412476</ele>
        <time>2012-06-24T09:11:17Z</time>
      </trkpt>
      <trkpt lat="43.39283" lon="-0.64789">
        <ele>139.528442</ele>
        <time>2012-06-24T09:11:21Z</time>
      </trkpt>
      <trkpt lat="43.39294" lon="-0.64795">
        <ele>139.047852</ele>
        <time>2012-06-24T09:11:23Z</time>
      </trkpt>
      <trkpt lat="43.39301" lon="-0.648">
        <ele>138.567261</ele>
        <time>2012-06-24T09:11:25Z</time>
      </trkpt>
      <trkpt lat="43.3931" lon="-0.6478">
        <ele>137.125244</ele>
        <time>2012-06-24T09:11:32Z</time>
      </trkpt>
      <trkpt lat="43.39305" lon="-0.64758">
        <ele>136.16394</ele>
        <time>2012-06-24T09:11:36Z</time>
      </trkpt>
      <trkpt lat="43.3929" lon="-0.64739">
        <ele>131.837891</ele>
        <time>2012-06-24T09:11:40Z</time>
      </trkpt>
      <trkpt lat="43.39278" lon="-0.6472">
        <ele>128.954102</ele>
        <time>2012-06-24T09:11:43Z</time>
      </trkpt>
      <trkpt lat="43.39256" lon="-0.64679">
        <ele>124.628052</ele>
        <time>2012-06-24T09:11:49Z</time>
      </trkpt>
      <trkpt lat="43.39253" lon="-0.64673">
        <ele>125.108765</ele>
        <time>2012-06-24T09:11:50Z</time>
      </trkpt>
      <trkpt lat="43.39233" lon="-0.6465">
        <ele>122.705444</ele>
        <time>2012-06-24T09:11:54Z</time>
      </trkpt>
      <trkpt lat="43.3923" lon="-0.6464">
        <ele>121.26355</ele>
        <time>2012-06-24T09:11:56Z</time>
      </trkpt>
      <trkpt lat="43.39223" lon="-0.64602">
        <ele>117.418213</ele>
        <time>2012-06-24T09:12:00Z</time>
      </trkpt>
      <trkpt lat="43.39213" lon="-0.64584">
        <ele>113.092285</ele>
        <time>2012-06-24T09:12:03Z</time>
      </trkpt>
      <trkpt lat="43.39209" lon="-0.64577">
        <ele>112.611572</ele>
        <time>2012-06-24T09:12:04Z</time>
      </trkpt>
      <trkpt lat="43.39197" lon="-0.6456">
        <ele>107.805054</ele>
        <time>2012-06-24T09:12:07Z</time>
      </trkpt>
      <trkpt lat="43.39185" lon="-0.64552">
        <ele>106.843628</ele>
        <time>2012-06-24T09:12:09Z</time>
      </trkpt>
      <trkpt lat="43.39164" lon="-0.64542">
        <ele>107.324341</ele>
        <time>2012-06-24T09:12:13Z</time>
      </trkpt>
      <trkpt lat="43.39149" lon="-0.64537">
        <ele>105.882446</ele>
        <time>2012-06-24T09:12:16Z</time>
      </trkpt>
      <trkpt lat="43.39104" lon="-0.6451">
        <ele>103.959717</ele>
        <time>2012-06-24T09:12:26Z</time>
      </trkpt>
      <trkpt lat="43.391" lon="-0.64499">
        <ele>102.037109</ele>
        <time>2012-06-24T09:12:28Z</time>
      </trkpt>
      <trkpt lat="43.39103" lon="-0.64481">
        <ele>101.556396</ele>
        <time>2012-06-24T09:12:30Z</time>
      </trkpt>
      <trkpt lat="43.39113" lon="-0.64429">
        <ele>100.595093</ele>
        <time>2012-06-24T09:12:36Z</time>
      </trkpt>
      <trkpt lat="43.39102" lon="-0.64255">
        <ele>101.075684</ele>
        <time>2012-06-24T09:12:56Z</time>
      </trkpt>
      <trkpt lat="43.39103" lon="-0.64223">
        <ele>100.595093</ele>
        <time>2012-06-24T09:13:00Z</time>
      </trkpt>
      <trkpt lat="43.39105" lon="-0.64208">
        <ele>101.556396</ele>
        <time>2012-06-24T09:13:02Z</time>
      </trkpt>
      <trkpt lat="43.39122" lon="-0.64176">
        <ele>102.5177</ele>
        <time>2012-06-24T09:13:07Z</time>
      </trkpt>
      <trkpt lat="43.3923" lon="-0.64047">
        <ele>102.998291</ele>
        <time>2012-06-24T09:13:31Z</time>
      </trkpt>
      <trkpt lat="43.39311" lon="-0.63946">
        <ele>103.479004</ele>
        <time>2012-06-24T09:13:49Z</time>
      </trkpt>
      <trkpt lat="43.39339" lon="-0.63955">
        <ele>102.998291</ele>
        <time>2012-06-24T09:13:55Z</time>
      </trkpt>
      <trkpt lat="43.39342" lon="-0.63961">
        <ele>103.479004</ele>
        <time>2012-06-24T09:13:56Z</time>
      </trkpt>
      <trkpt lat="43.39418" lon="-0.64086">
        <ele>102.037109</ele>
        <time>2012-06-24T09:14:14Z</time>
      </trkpt>
      <trkpt lat="43.39452" lon="-0.64156">
        <ele>102.998291</ele>
        <time>2012-06-24T09:14:23Z</time>
      </trkpt>
      <trkpt lat="43.39462" lon="-0.64169">
        <ele>101.556396</ele>
        <time>2012-06-24T09:14:25Z</time>
      </trkpt>
      <trkpt lat="43.39522" lon="-0.64276">
        <ele>102.037109</ele>
        <time>2012-06-24T09:14:40Z</time>
      </trkpt>
      <trkpt lat="43.39529" lon="-0.64296">
        <ele>102.5177</ele>
        <time>2012-06-24T09:14:43Z</time>
      </trkpt>
      <trkpt lat="43.39556" lon="-0.64338">
        <ele>102.037109</ele>
        <time>2012-06-24T09:14:50Z</time>
      </trkpt>
      <trkpt lat="43.39575" lon="-0.64335">
        <ele>101.075684</ele>
        <time>2012-06-24T09:14:55Z</time>
      </trkpt>
      <trkpt lat="43.39629" lon="-0.64274">
        <ele>97.711182</ele>
        <time>2012-06-24T09:15:05Z</time>
      </trkpt>
      <trkpt lat="43.39666" lon="-0.64162">
        <ele>98.672485</ele>
        <time>2012-06-24T09:15:17Z</time>
      </trkpt>
      <trkpt lat="43.39677" lon="-0.64111">
        <ele>98.672485</ele>
        <time>2012-06-24T09:15:23Z</time>
      </trkpt>
      <trkpt lat="43.39679" lon="-0.63972">
        <ele>99.153076</ele>
        <time>2012-06-24T09:15:39Z</time>
      </trkpt>
      <trkpt lat="43.39641" lon="-0.63788">
        <ele>99.633789</ele>
        <time>2012-06-24T09:16:04Z</time>
      </trkpt>
      <trkpt lat="43.39634" lon="-0.63695">
        <ele>101.075684</ele>
        <time>2012-06-24T09:16:17Z</time>
      </trkpt>
      <trkpt lat="43.39617" lon="-0.63681">
        <ele>100.595093</ele>
        <time>2012-06-24T09:16:25Z</time>
      </trkpt>
      <trkpt lat="43.39607" lon="-0.63681">
        <ele>100.595093</ele>
        <time>2012-06-24T09:16:30Z</time>
      </trkpt>
      <trkpt lat="43.39594" lon="-0.63659">
        <ele>99.633789</ele>
        <time>2012-06-24T09:16:44Z</time>
      </trkpt>
      <trkpt lat="43.39593" lon="-0.63659">
        <ele>98.672485</ele>
        <time>2012-06-24T09:17:07Z</time>
      </trkpt>
      <trkpt lat="43.39593" lon="-0.63659">
        <ele>101.075684</ele>
        <time>2012-06-24T09:17:09Z</time>
      </trkpt>
    </trkseg>
  </trk>
</gpx>